<?xml version="1.0" encoding="UTF-8" standalone="no" ?><gpx xmlns="http://www.topografix.com/GPX/1/1" xmlns:gpxx="http://www.garmin.com/xmlschemas/GpxExtensions/v3" xmlns:wptx1="http://www.garmin.com/xmlschemas/WaypointExtension/v1" xmlns:gpxtpx="http://www.garmin.com/xmlschemas/TrackPointExtension/v1" creator="GuideVTT.com" version="1.1" xmlns:xsi="http://www.w3.org/2001/XMLSchema-instance" xsi:schemaLocation="http://www.topografix.com/GPX/1/1 http://www.topografix.com/GPX/1/1/gpx.xsd http://www.garmin.com/xmlschemas/GpxExtensions/v3 http://www8.garmin.com/xmlschemas/GpxExtensionsv3.xsd http://www.garmin.com/xmlschemas/WaypointExtension/v1 http://www8.garmin.com/xmlschemas/WaypointExtensionv1.xsd http://www.garmin.com/xmlschemas/TrackPointExtension/v1 http://www.garmin.com/xmlschemas/TrackPointExtensionv1.xsd">
<metadata><link href="http://www.garmin.com"><text>Garmin International</text></link><time>2013-06-22T15:13:50Z</time></metadata>
<trk><name>cretes_des_danses2.gpx</name><extensions><gpxx:TrackExtension><gpxx:DisplayColor>Cyan</gpxx:DisplayColor></gpxx:TrackExtension></extensions><trkseg>
<trkpt lat="46.44733600" lon="6.15853000"><ele>1047.4936522272</ele><time>2011-04-10T09:37:10Z</time></trkpt>
<trkpt lat="46.44754300" lon="6.15856300"><ele>1048.4548338456</ele><time>2011-04-10T09:37:14Z</time></trkpt>
<trkpt lat="46.44753900" lon="6.15882300"><ele>1047.9743651088</ele><time>2011-04-10T09:37:20Z</time></trkpt>
<trkpt lat="46.44759900" lon="6.15886800"><ele>1047.4936522272</ele><time>2011-04-10T09:37:22Z</time></trkpt>
<trkpt lat="46.44776300" lon="6.15888900"><ele>1048.4548338456</ele><time>2011-04-10T09:37:26Z</time></trkpt>
<trkpt lat="46.44812800" lon="6.15905700"><ele>1049.8969727952</ele><time>2011-04-10T09:37:37Z</time></trkpt>
<trkpt lat="46.44865900" lon="6.15941300"><ele>1050.3776856768</ele><time>2011-04-10T09:37:55Z</time></trkpt>
<trkpt lat="46.44872700" lon="6.15936600"><ele>1050.8581544136</ele><time>2011-04-10T09:38:11Z</time></trkpt>
<trkpt lat="46.44887200" lon="6.15933200"><ele>1052.3002930584</ele><time>2011-04-10T09:39:39Z</time></trkpt>
<trkpt lat="46.44944000" lon="6.15944300"><ele>1051.8195801768</ele><time>2011-04-10T09:39:55Z</time></trkpt>
<trkpt lat="46.44996300" lon="6.15921800"><ele>1054.7036133216</ele><time>2011-04-10T09:40:10Z</time></trkpt>
<trkpt lat="46.44999200" lon="6.15920300"><ele>1054.7036133216</ele><time>2011-04-10T09:40:11Z</time></trkpt>
<trkpt lat="46.45035000" lon="6.15900100"><ele>1058.5488280848</ele><time>2011-04-10T09:40:26Z</time></trkpt>
<trkpt lat="46.45049900" lon="6.15877900"><ele>1061.4328612296</ele><time>2011-04-10T09:40:40Z</time></trkpt>
<trkpt lat="46.45062900" lon="6.15844600"><ele>1063.835937348</ele><time>2011-04-10T09:40:58Z</time></trkpt>
<trkpt lat="46.45068400" lon="6.15832200"><ele>1067.2006836792</ele><time>2011-04-10T09:41:05Z</time></trkpt>
<trkpt lat="46.45097600" lon="6.15772500"><ele>1073.4494628504</ele><time>2011-04-10T09:41:43Z</time></trkpt>
<trkpt lat="46.45119700" lon="6.15781400"><ele>1076.813964732</ele><time>2011-04-10T09:42:04Z</time></trkpt>
<trkpt lat="46.45125500" lon="6.15791000"><ele>1078.7365721136</ele><time>2011-04-10T09:42:11Z</time></trkpt>
<trkpt lat="46.45136000" lon="6.15807400"><ele>1082.5817871816</ele><time>2011-04-10T09:42:23Z</time></trkpt>
<trkpt lat="46.45156200" lon="6.15828900"><ele>1085.946533208</ele><time>2011-04-10T09:42:43Z</time></trkpt>
<trkpt lat="46.45184800" lon="6.15840400"><ele>1092.675781116</ele><time>2011-04-10T09:43:06Z</time></trkpt>
<trkpt lat="46.45189700" lon="6.15846800"><ele>1095.0788575392</ele><time>2011-04-10T09:43:28Z</time></trkpt>
<trkpt lat="46.45199800" lon="6.15843300"><ele>1094.5981446576</ele><time>2011-04-10T09:44:15Z</time></trkpt>
<trkpt lat="46.45215600" lon="6.15864800"><ele>1097.962890684</ele><time>2011-04-10T09:44:30Z</time></trkpt>
<trkpt lat="46.45230600" lon="6.15913100"><ele>1103.7309569736</ele><time>2011-04-10T09:44:56Z</time></trkpt>
<trkpt lat="46.45230900" lon="6.15915500"><ele>1103.7309569736</ele><time>2011-04-10T09:44:57Z</time></trkpt>
<trkpt lat="46.45231400" lon="6.15920400"><ele>1105.1728514736</ele><time>2011-04-10T09:44:59Z</time></trkpt>
<trkpt lat="46.45235500" lon="6.15955600"><ele>1107.5761717368</ele><time>2011-04-10T09:45:15Z</time></trkpt>
<trkpt lat="46.45252400" lon="6.15986800"><ele>1110.9406739232</ele><time>2011-04-10T09:45:33Z</time></trkpt>
<trkpt lat="46.45272600" lon="6.16022700"><ele>1114.3051758048</ele><time>2011-04-10T09:45:57Z</time></trkpt>
<trkpt lat="46.45274900" lon="6.16025100"><ele>1113.8244629232</ele><time>2011-04-10T09:45:59Z</time></trkpt>
<trkpt lat="46.45314100" lon="6.16135800"><ele>1119.5927733576</ele><time>2011-04-10T09:46:56Z</time></trkpt>
<trkpt lat="46.45353500" lon="6.16157200"><ele>1120.0732420944</ele><time>2011-04-10T09:47:18Z</time></trkpt>
<trkpt lat="46.45384100" lon="6.16175800"><ele>1120.0732420944</ele><time>2011-04-10T09:47:29Z</time></trkpt>
<trkpt lat="46.45402800" lon="6.16232700"><ele>1117.6699218312</ele><time>2011-04-10T09:47:38Z</time></trkpt>
<trkpt lat="46.45413200" lon="6.16253200"><ele>1117.1894530944</ele><time>2011-04-10T09:47:42Z</time></trkpt>
<trkpt lat="46.45454800" lon="6.16295800"><ele>1113.3439941864</ele><time>2011-04-10T09:47:50Z</time></trkpt>
<trkpt lat="46.45497200" lon="6.16344700"><ele>1110.4599610416</ele><time>2011-04-10T09:47:59Z</time></trkpt>
<trkpt lat="46.45515200" lon="6.16365800"><ele>1110.4599610416</ele><time>2011-04-10T09:48:03Z</time></trkpt>
<trkpt lat="46.45537100" lon="6.16361100"><ele>1110.9406739232</ele><time>2011-04-10T09:48:08Z</time></trkpt>
<trkpt lat="46.45568200" lon="6.16366100"><ele>1109.4987794232</ele><time>2011-04-10T09:48:16Z</time></trkpt>
<trkpt lat="46.45572000" lon="6.16365100"><ele>1109.4987794232</ele><time>2011-04-10T09:48:17Z</time></trkpt>
<trkpt lat="46.45608400" lon="6.16338000"><ele>1110.9406739232</ele><time>2011-04-10T09:48:28Z</time></trkpt>
<trkpt lat="46.45629200" lon="6.16284500"><ele>1113.8244629232</ele><time>2011-04-10T09:48:38Z</time></trkpt>
<trkpt lat="46.45643100" lon="6.16242600"><ele>1117.1894530944</ele><time>2011-04-10T09:48:46Z</time></trkpt>
<trkpt lat="46.45644500" lon="6.16238100"><ele>1117.1894530944</ele><time>2011-04-10T09:48:47Z</time></trkpt>
<trkpt lat="46.45653400" lon="6.16184500"><ele>1119.5927733576</ele><time>2011-04-10T09:49:01Z</time></trkpt>
<trkpt lat="46.45657800" lon="6.16117700"><ele>1122.4765623576</ele><time>2011-04-10T09:49:21Z</time></trkpt>
<trkpt lat="46.45660700" lon="6.16064100"><ele>1124.399170044</ele><time>2011-04-10T09:49:40Z</time></trkpt>
<trkpt lat="46.45666000" lon="6.16029300"><ele>1127.2832031888</ele><time>2011-04-10T09:49:54Z</time></trkpt>
<trkpt lat="46.45683000" lon="6.16000500"><ele>1131.128417952</ele><time>2011-04-10T09:50:11Z</time></trkpt>
<trkpt lat="46.45687200" lon="6.15991500"><ele>1131.128417952</ele><time>2011-04-10T09:50:29Z</time></trkpt>
<trkpt lat="46.45692300" lon="6.15968200"><ele>1134.4931639784</ele><time>2011-04-10T09:51:13Z</time></trkpt>
<trkpt lat="46.45693200" lon="6.15937800"><ele>1137.3769529784</ele><time>2011-04-10T09:51:27Z</time></trkpt>
<trkpt lat="46.45677600" lon="6.15902800"><ele>1140.7414551648</ele><time>2011-04-10T09:51:46Z</time></trkpt>
<trkpt lat="46.45661000" lon="6.15882300"><ele>1143.6254883096</ele><time>2011-04-10T09:52:01Z</time></trkpt>
<trkpt lat="46.45645500" lon="6.15855400"><ele>1146.0288085728</ele><time>2011-04-10T09:52:17Z</time></trkpt>
<trkpt lat="46.45633900" lon="6.15830200"><ele>1149.3935545992</ele><time>2011-04-10T09:52:31Z</time></trkpt>
<trkpt lat="46.45625200" lon="6.15780400"><ele>1152.2773435992</ele><time>2011-04-10T09:52:56Z</time></trkpt>
<trkpt lat="46.45629800" lon="6.15745600"><ele>1154.2001954304</ele><time>2011-04-10T09:53:13Z</time></trkpt>
<trkpt lat="46.45632300" lon="6.15734200"><ele>1155.1613770488</ele><time>2011-04-10T09:53:19Z</time></trkpt>
<trkpt lat="46.45630300" lon="6.15685500"><ele>1159.006591812</ele><time>2011-04-10T09:53:42Z</time></trkpt>
<trkpt lat="46.45620200" lon="6.15645500"><ele>1161.8906249568</ele><time>2011-04-10T09:54:03Z</time></trkpt>
<trkpt lat="46.45615200" lon="6.15631900"><ele>1163.8129881936</ele><time>2011-04-10T09:54:10Z</time></trkpt>
<trkpt lat="46.45608100" lon="6.15618500"><ele>1166.6972654832</ele><time>2011-04-10T09:54:18Z</time></trkpt>
<trkpt lat="46.45586700" lon="6.15582500"><ele>1169.5812989328</ele><time>2011-04-10T09:54:41Z</time></trkpt>
<trkpt lat="46.45584900" lon="6.15579200"><ele>1170.5424805512</ele><time>2011-04-10T09:54:43Z</time></trkpt>
<trkpt lat="46.45569700" lon="6.15550100"><ele>1173.9069824328</ele><time>2011-04-10T09:55:01Z</time></trkpt>
<trkpt lat="46.45566000" lon="6.15541900"><ele>1174.868408196</ele><time>2011-04-10T09:55:06Z</time></trkpt>
<trkpt lat="46.45562900" lon="6.15536100"><ele>1175.8295898144</ele><time>2011-04-10T09:55:10Z</time></trkpt>
<trkpt lat="46.45548500" lon="6.15506400"><ele>1177.2717284592</ele><time>2011-04-10T09:55:29Z</time></trkpt>
<trkpt lat="46.45534700" lon="6.15474600"><ele>1180.155761604</ele><time>2011-04-10T09:55:47Z</time></trkpt>
<trkpt lat="46.45517600" lon="6.15436200"><ele>1182.559082172</ele><time>2011-04-10T09:56:09Z</time></trkpt>
<trkpt lat="46.45509700" lon="6.15387700"><ele>1185.442871172</ele><time>2011-04-10T09:56:33Z</time></trkpt>
<trkpt lat="46.45496400" lon="6.15338100"><ele>1187.3654785536</ele><time>2011-04-10T09:56:57Z</time></trkpt>
<trkpt lat="46.45479600" lon="6.15295600"><ele>1187.8461914352</ele><time>2011-04-10T09:57:19Z</time></trkpt>
<trkpt lat="46.45491900" lon="6.15243800"><ele>1189.7687988168</ele><time>2011-04-10T09:57:36Z</time></trkpt>
<trkpt lat="46.45510600" lon="6.15200500"><ele>1192.6528319616</ele><time>2011-04-10T09:57:50Z</time></trkpt>
<trkpt lat="46.45520200" lon="6.15166100"><ele>1194.5751951984</ele><time>2011-04-10T09:58:03Z</time></trkpt>
<trkpt lat="46.45525100" lon="6.15125500"><ele>1197.9401856744</ele><time>2011-04-10T09:58:20Z</time></trkpt>
<trkpt lat="46.45540300" lon="6.15082000"><ele>1201.304687556</ele><time>2011-04-10T09:58:39Z</time></trkpt>
<trkpt lat="46.45555900" lon="6.15044500"><ele>1204.6691894376</ele><time>2011-04-10T09:58:57Z</time></trkpt>
<trkpt lat="46.45565900" lon="6.14992300"><ele>1207.5532225824</ele><time>2011-04-10T09:59:19Z</time></trkpt>
<trkpt lat="46.45594000" lon="6.14935800"><ele>1214.2824707952</ele><time>2011-04-10T09:59:55Z</time></trkpt>
<trkpt lat="46.45630500" lon="6.14849900"><ele>1218.60839844</ele><time>2011-04-10T10:00:51Z</time></trkpt>
<trkpt lat="46.45617200" lon="6.14798800"><ele>1219.5698242032</ele><time>2011-04-10T10:01:11Z</time></trkpt>
<trkpt lat="46.45618400" lon="6.14770900"><ele>1223.8955077032</ele><time>2011-04-10T10:01:23Z</time></trkpt>
<trkpt lat="46.45617700" lon="6.14720400"><ele>1227.2602540344</ele><time>2011-04-10T10:01:44Z</time></trkpt>
<trkpt lat="46.45609000" lon="6.14683600"><ele>1230.1442871792</ele><time>2011-04-10T10:01:58Z</time></trkpt>
<trkpt lat="46.45618600" lon="6.14644900"><ele>1232.0668945608</ele><time>2011-04-10T10:02:14Z</time></trkpt>
<trkpt lat="46.45632200" lon="6.14620900"><ele>1235.912109324</ele><time>2011-04-10T10:02:27Z</time></trkpt>
<trkpt lat="46.45647100" lon="6.14576400"><ele>1238.3154295872</ele><time>2011-04-10T10:02:47Z</time></trkpt>
<trkpt lat="46.45662400" lon="6.14523400"><ele>1240.2380369688</ele><time>2011-04-10T10:03:09Z</time></trkpt>
<trkpt lat="46.45664200" lon="6.14517600"><ele>1241.199218892</ele><time>2011-04-10T10:03:12Z</time></trkpt>
<trkpt lat="46.45675900" lon="6.14484100"><ele>1243.1218262736</ele><time>2011-04-10T10:03:32Z</time></trkpt>
<trkpt lat="46.45673800" lon="6.14476400"><ele>1244.0834961816</ele><time>2011-04-10T10:03:49Z</time></trkpt>
<trkpt lat="46.45680200" lon="6.14450600"><ele>1246.0061035632</ele><time>2011-04-10T10:04:03Z</time></trkpt>
<trkpt lat="46.45687800" lon="6.14412100"><ele>1249.3706054448</ele><time>2011-04-10T10:04:21Z</time></trkpt>
<trkpt lat="46.45694600" lon="6.14386200"><ele>1252.2543944448</ele><time>2011-04-10T10:04:33Z</time></trkpt>
<trkpt lat="46.45716000" lon="6.14355500"><ele>1255.619140776</ele><time>2011-04-10T10:04:52Z</time></trkpt>
<trkpt lat="46.45741800" lon="6.14302100"><ele>1258.502929776</ele><time>2011-04-10T10:05:19Z</time></trkpt>
<trkpt lat="46.45773700" lon="6.14263300"><ele>1258.502929776</ele><time>2011-04-10T10:05:45Z</time></trkpt>
<trkpt lat="46.45852700" lon="6.14192600"><ele>1260.906494184</ele><time>2011-04-10T10:06:38Z</time></trkpt>
<trkpt lat="46.45852000" lon="6.14099100"><ele>1260.4257813024</ele><time>2011-04-10T10:07:06Z</time></trkpt>
<trkpt lat="46.45810900" lon="6.13977600"><ele>1258.502929776</ele><time>2011-04-10T10:07:32Z</time></trkpt>
<trkpt lat="46.45802900" lon="6.13910300"><ele>1258.502929776</ele><time>2011-04-10T10:07:43Z</time></trkpt>
<trkpt lat="46.45818200" lon="6.13896000"><ele>1258.9836426576</ele><time>2011-04-10T10:07:49Z</time></trkpt>
<trkpt lat="46.45844600" lon="6.13908800"><ele>1260.906494184</ele><time>2011-04-10T10:08:01Z</time></trkpt>
<trkpt lat="46.45901400" lon="6.13978400"><ele>1266.6743163288</ele><time>2011-04-10T10:08:44Z</time></trkpt>
<trkpt lat="46.45909200" lon="6.13994200"><ele>1270.0388182104</ele><time>2011-04-10T10:08:53Z</time></trkpt>
<trkpt lat="46.45924500" lon="6.14020400"><ele>1271.9614258968</ele><time>2011-04-10T10:09:08Z</time></trkpt>
<trkpt lat="46.45945300" lon="6.14070300"><ele>1274.36474616</ele><time>2011-04-10T10:09:32Z</time></trkpt>
<trkpt lat="46.45971600" lon="6.14155600"><ele>1280.1328124496</ele><time>2011-04-10T10:10:09Z</time></trkpt>
<trkpt lat="46.45986200" lon="6.14194500"><ele>1283.4973143312</ele><time>2011-04-10T10:10:28Z</time></trkpt>
<trkpt lat="46.45998700" lon="6.14236200"><ele>1284.939452976</ele><time>2011-04-10T10:10:46Z</time></trkpt>
<trkpt lat="46.46002800" lon="6.14258400"><ele>1288.3039551624</ele><time>2011-04-10T10:10:55Z</time></trkpt>
<trkpt lat="46.46010700" lon="6.14308200"><ele>1290.7070312808</ele><time>2011-04-10T10:11:16Z</time></trkpt>
<trkpt lat="46.46021600" lon="6.14354800"><ele>1293.1105956888</ele><time>2011-04-10T10:11:36Z</time></trkpt>
<trkpt lat="46.46038600" lon="6.14392200"><ele>1295.9946288336</ele><time>2011-04-10T10:11:55Z</time></trkpt>
<trkpt lat="46.46054900" lon="6.14408100"><ele>1298.8784178336</ele><time>2011-04-10T10:12:07Z</time></trkpt>
<trkpt lat="46.46076600" lon="6.14439300"><ele>1299.8398439016</ele><time>2011-04-10T10:12:26Z</time></trkpt>
<trkpt lat="46.46083900" lon="6.14463200"><ele>1302.7236329016</ele><time>2011-04-10T10:12:37Z</time></trkpt>
<trkpt lat="46.46094600" lon="6.14493700"><ele>1306.5688476648</ele><time>2011-04-10T10:12:51Z</time></trkpt>
<trkpt lat="46.46095500" lon="6.14495900"><ele>1305.6076660464</ele><time>2011-04-10T10:12:52Z</time></trkpt>
<trkpt lat="46.46109400" lon="6.14534700"><ele>1307.530273428</ele><time>2011-04-10T10:13:10Z</time></trkpt>
<trkpt lat="46.46120000" lon="6.14583400"><ele>1310.4143065728</ele><time>2011-04-10T10:13:31Z</time></trkpt>
<trkpt lat="46.46138400" lon="6.14619700"><ele>1312.817626836</ele><time>2011-04-10T10:13:49Z</time></trkpt>
<trkpt lat="46.46163600" lon="6.14657100"><ele>1313.7788084544</ele><time>2011-04-10T10:14:09Z</time></trkpt>
<trkpt lat="46.46191100" lon="6.14699500"><ele>1315.220947404</ele><time>2011-04-10T10:14:31Z</time></trkpt>
<trkpt lat="46.46213300" lon="6.14730300"><ele>1316.1821290224</ele><time>2011-04-10T10:14:47Z</time></trkpt>
<trkpt lat="46.46230500" lon="6.14756100"><ele>1316.662841904</ele><time>2011-04-10T10:15:01Z</time></trkpt>
<trkpt lat="46.46256400" lon="6.14796400"><ele>1316.662841904</ele><time>2011-04-10T10:15:18Z</time></trkpt>
<trkpt lat="46.46305500" lon="6.14847800"><ele>1315.7016602856</ele><time>2011-04-10T10:15:37Z</time></trkpt>
<trkpt lat="46.46358900" lon="6.14925200"><ele>1312.3369139544</ele><time>2011-04-10T10:15:54Z</time></trkpt>
<trkpt lat="46.46429400" lon="6.14960100"><ele>1314.259521336</ele><time>2011-04-10T10:16:17Z</time></trkpt>
<trkpt lat="46.46476800" lon="6.14954500"><ele>1316.1821290224</ele><time>2011-04-10T10:16:35Z</time></trkpt>
<trkpt lat="46.46508800" lon="6.15009400"><ele>1319.5468750488</ele><time>2011-04-10T10:16:55Z</time></trkpt>
<trkpt lat="46.46555300" lon="6.15019900"><ele>1317.1435547856</ele><time>2011-04-10T10:17:11Z</time></trkpt>
<trkpt lat="46.46581600" lon="6.15011100"><ele>1315.7016602856</ele><time>2011-04-10T10:17:18Z</time></trkpt>
<trkpt lat="46.46637700" lon="6.15016800"><ele>1312.817626836</ele><time>2011-04-10T10:17:31Z</time></trkpt>
<trkpt lat="46.46775500" lon="6.15116600"><ele>1308.9724120728</ele><time>2011-04-10T10:18:04Z</time></trkpt>
<trkpt lat="46.46799000" lon="6.15193800"><ele>1308.9724120728</ele><time>2011-04-10T10:18:20Z</time></trkpt>
<trkpt lat="46.47057200" lon="6.15318100"><ele>1303.2043457832</ele><time>2011-04-10T10:19:49Z</time></trkpt>
<trkpt lat="46.47098200" lon="6.15360100"><ele>1301.2817384016</ele><time>2011-04-10T10:20:03Z</time></trkpt>
<trkpt lat="46.47152900" lon="6.15399300"><ele>1297.4365233336</ele><time>2011-04-10T10:20:18Z</time></trkpt>
<trkpt lat="46.47195500" lon="6.15434700"><ele>1294.5524901888</ele><time>2011-04-10T10:20:30Z</time></trkpt>
<trkpt lat="46.47235500" lon="6.15489300"><ele>1291.1877441624</ele><time>2011-04-10T10:20:47Z</time></trkpt>
<trkpt lat="46.47283700" lon="6.15542400"><ele>1283.0166014496</ele><time>2011-04-10T10:21:04Z</time></trkpt>
<trkpt lat="46.47294900" lon="6.15550200"><ele>1281.5747069496</ele><time>2011-04-10T10:21:07Z</time></trkpt>
<trkpt lat="46.47357800" lon="6.15582400"><ele>1276.2875976864</ele><time>2011-04-10T10:21:22Z</time></trkpt>
<trkpt lat="46.47362300" lon="6.15584500"><ele>1276.2875976864</ele><time>2011-04-10T10:21:23Z</time></trkpt>
<trkpt lat="46.47377900" lon="6.15593100"><ele>1274.8454590416</ele><time>2011-04-10T10:21:27Z</time></trkpt>
<trkpt lat="46.47396700" lon="6.15603800"><ele>1272.92285166</ele><time>2011-04-10T10:21:32Z</time></trkpt>
<trkpt lat="46.47433600" lon="6.15633700"><ele>1270.0388182104</ele><time>2011-04-10T10:21:42Z</time></trkpt>
<trkpt lat="46.47464800" lon="6.15672300"><ele>1266.1936034472</ele><time>2011-04-10T10:21:52Z</time></trkpt>
<trkpt lat="46.47489300" lon="6.15700900"><ele>1263.3098144472</ele><time>2011-04-10T10:22:01Z</time></trkpt>
<trkpt lat="46.47518300" lon="6.15769900"><ele>1260.906494184</ele><time>2011-04-10T10:22:22Z</time></trkpt>
<trkpt lat="46.47509700" lon="6.15789100"><ele>1259.944824276</ele><time>2011-04-10T10:22:27Z</time></trkpt>
<trkpt lat="46.47505500" lon="6.15826900"><ele>1261.8679199472</ele><time>2011-04-10T10:22:36Z</time></trkpt>
<trkpt lat="46.47517700" lon="6.15910500"><ele>1259.944824276</ele><time>2011-04-10T10:22:56Z</time></trkpt>
<trkpt lat="46.47528100" lon="6.15992900"><ele>1258.9836426576</ele><time>2011-04-10T10:23:15Z</time></trkpt>
<trkpt lat="46.47493000" lon="6.16091800"><ele>1257.061035276</ele><time>2011-04-10T10:23:37Z</time></trkpt>
<trkpt lat="46.47484800" lon="6.16166500"><ele>1258.0224610392</ele><time>2011-04-10T10:23:54Z</time></trkpt>
<trkpt lat="46.47651000" lon="6.16287600"><ele>1258.9836426576</ele><time>2011-04-10T10:24:51Z</time></trkpt>
<trkpt lat="46.47723600" lon="6.16234600"><ele>1257.061035276</ele><time>2011-04-10T10:25:14Z</time></trkpt>
<trkpt lat="46.47732700" lon="6.16227800"><ele>1255.619140776</ele><time>2011-04-10T10:25:17Z</time></trkpt>
<trkpt lat="46.47820000" lon="6.16216100"><ele>1250.332031208</ele><time>2011-04-10T10:25:45Z</time></trkpt>
<trkpt lat="46.47855500" lon="6.16242500"><ele>1247.9287109448</ele><time>2011-04-10T10:25:55Z</time></trkpt>
<trkpt lat="46.47988600" lon="6.16429200"><ele>1242.6413575368</ele><time>2011-04-10T10:26:39Z</time></trkpt>
<trkpt lat="46.47992100" lon="6.16538600"><ele>1239.2766112056</ele><time>2011-04-10T10:27:00Z</time></trkpt>
<trkpt lat="46.48013200" lon="6.16598700"><ele>1238.7961424688</ele><time>2011-04-10T10:27:12Z</time></trkpt>
<trkpt lat="46.48011400" lon="6.16619500"><ele>1238.7961424688</ele><time>2011-04-10T10:27:18Z</time></trkpt>
<trkpt lat="46.48017400" lon="6.16619700"><ele>1239.7573240872</ele><time>2011-04-10T10:27:22Z</time></trkpt>
<trkpt lat="46.48021400" lon="6.16616900"><ele>1240.7185060104</ele><time>2011-04-10T10:27:25Z</time></trkpt>
<trkpt lat="46.48032300" lon="6.16585700"><ele>1243.1218262736</ele><time>2011-04-10T10:27:39Z</time></trkpt>
<trkpt lat="46.48034700" lon="6.16554800"><ele>1246.0061035632</ele><time>2011-04-10T10:27:52Z</time></trkpt>
<trkpt lat="46.48043800" lon="6.16527100"><ele>1249.3706054448</ele><time>2011-04-10T10:28:05Z</time></trkpt>
<trkpt lat="46.48067400" lon="6.16511200"><ele>1251.2932128264</ele><time>2011-04-10T10:28:19Z</time></trkpt>
<trkpt lat="46.48094900" lon="6.16497300"><ele>1253.215820208</ele><time>2011-04-10T10:28:36Z</time></trkpt>
<trkpt lat="46.48110600" lon="6.16471700"><ele>1253.215820208</ele><time>2011-04-10T10:28:51Z</time></trkpt>
<trkpt lat="46.48100200" lon="6.16417000"><ele>1256.0996095128</ele><time>2011-04-10T10:29:13Z</time></trkpt>
<trkpt lat="46.48092300" lon="6.16387000"><ele>1259.4643555392</ele><time>2011-04-10T10:29:27Z</time></trkpt>
<trkpt lat="46.48090000" lon="6.16381200"><ele>1260.4257813024</ele><time>2011-04-10T10:29:30Z</time></trkpt>
<trkpt lat="46.48084800" lon="6.16339900"><ele>1262.8291015656</ele><time>2011-04-10T10:29:52Z</time></trkpt>
<trkpt lat="46.48084800" lon="6.16337000"><ele>1263.3098144472</ele><time>2011-04-10T10:29:53Z</time></trkpt>
<trkpt lat="46.48082900" lon="6.16282000"><ele>1265.7131347104</ele><time>2011-04-10T10:30:14Z</time></trkpt>
<trkpt lat="46.48089700" lon="6.16234000"><ele>1268.5969237104</ele><time>2011-04-10T10:30:34Z</time></trkpt>
<trkpt lat="46.48115900" lon="6.16213100"><ele>1268.5969237104</ele><time>2011-04-10T10:30:50Z</time></trkpt>
<trkpt lat="46.48128000" lon="6.16206500"><ele>1270.0388182104</ele><time>2011-04-10T10:30:55Z</time></trkpt>
<trkpt lat="46.48172800" lon="6.16210800"><ele>1273.4035645416</ele><time>2011-04-10T10:31:11Z</time></trkpt>
<trkpt lat="46.48232800" lon="6.16239700"><ele>1273.4035645416</ele><time>2011-04-10T10:31:27Z</time></trkpt>
<trkpt lat="46.48291100" lon="6.16270600"><ele>1272.4421387784</ele><time>2011-04-10T10:31:43Z</time></trkpt>
<trkpt lat="46.48340900" lon="6.16261600"><ele>1273.4035645416</ele><time>2011-04-10T10:31:58Z</time></trkpt>
<trkpt lat="46.48345200" lon="6.16258700"><ele>1274.36474616</ele><time>2011-04-10T10:32:00Z</time></trkpt>
<trkpt lat="46.48368000" lon="6.16252800"><ele>1277.7294921864</ele><time>2011-04-10T10:32:15Z</time></trkpt>
<trkpt lat="46.48386900" lon="6.16261300"><ele>1280.6135253312</ele><time>2011-04-10T10:32:28Z</time></trkpt>
<trkpt lat="46.48399900" lon="6.16270200"><ele>1283.4973143312</ele><time>2011-04-10T10:32:37Z</time></trkpt>
<trkpt lat="46.48425700" lon="6.16274200"><ele>1285.4199220176</ele><time>2011-04-10T10:32:55Z</time></trkpt>
<trkpt lat="46.48438500" lon="6.16260200"><ele>1287.3425293992</ele><time>2011-04-10T10:33:06Z</time></trkpt>
<trkpt lat="46.48442300" lon="6.16224500"><ele>1289.2651367808</ele><time>2011-04-10T10:33:23Z</time></trkpt>
<trkpt lat="46.48431900" lon="6.16191700"><ele>1292.630126952</ele><time>2011-04-10T10:33:39Z</time></trkpt>
<trkpt lat="46.48403900" lon="6.16157500"><ele>1293.1105956888</ele><time>2011-04-10T10:33:55Z</time></trkpt>
<trkpt lat="46.48344500" lon="6.16103300"><ele>1293.5913085704</ele><time>2011-04-10T10:34:14Z</time></trkpt>
<trkpt lat="46.48298300" lon="6.16039800"><ele>1293.5913085704</ele><time>2011-04-10T10:34:32Z</time></trkpt>
<trkpt lat="46.48276200" lon="6.15973000"><ele>1294.5524901888</ele><time>2011-04-10T10:34:47Z</time></trkpt>
<trkpt lat="46.48305400" lon="6.15916000"><ele>1296.4753417152</ele><time>2011-04-10T10:35:01Z</time></trkpt>
<trkpt lat="46.48353800" lon="6.15868500"><ele>1295.0332030704</ele><time>2011-04-10T10:35:16Z</time></trkpt>
<trkpt lat="46.48363500" lon="6.15851700"><ele>1295.0332030704</ele><time>2011-04-10T10:35:20Z</time></trkpt>
<trkpt lat="46.48369300" lon="6.15835800"><ele>1295.0332030704</ele><time>2011-04-10T10:35:23Z</time></trkpt>
<trkpt lat="46.48408200" lon="6.15743700"><ele>1295.513915952</ele><time>2011-04-10T10:35:43Z</time></trkpt>
<trkpt lat="46.48408300" lon="6.15598200"><ele>1295.9946288336</ele><time>2011-04-10T10:36:10Z</time></trkpt>
<trkpt lat="46.48449600" lon="6.15535500"><ele>1296.4753417152</ele><time>2011-04-10T10:36:25Z</time></trkpt>
<trkpt lat="46.48488100" lon="6.15519100"><ele>1296.4753417152</ele><time>2011-04-10T10:36:36Z</time></trkpt>
<trkpt lat="46.48520600" lon="6.15475700"><ele>1295.513915952</ele><time>2011-04-10T10:36:49Z</time></trkpt>
<trkpt lat="46.48518600" lon="6.15442700"><ele>1295.513915952</ele><time>2011-04-10T10:36:55Z</time></trkpt>
<trkpt lat="46.48499600" lon="6.15408600"><ele>1295.513915952</ele><time>2011-04-10T10:37:03Z</time></trkpt>
<trkpt lat="46.48486600" lon="6.15383100"><ele>1295.9946288336</ele><time>2011-04-10T10:37:09Z</time></trkpt>
<trkpt lat="46.48482500" lon="6.15354400"><ele>1295.513915952</ele><time>2011-04-10T10:37:14Z</time></trkpt>
<trkpt lat="46.48488700" lon="6.15265500"><ele>1295.9946288336</ele><time>2011-04-10T10:37:30Z</time></trkpt>
<trkpt lat="46.48471000" lon="6.15160200"><ele>1298.8784178336</ele><time>2011-04-10T10:37:51Z</time></trkpt>
<trkpt lat="46.48476000" lon="6.15114500"><ele>1302.24292002</ele><time>2011-04-10T10:38:05Z</time></trkpt>
<trkpt lat="46.48478200" lon="6.15109600"><ele>1302.7236329016</ele><time>2011-04-10T10:38:07Z</time></trkpt>
<trkpt lat="46.48502400" lon="6.15062200"><ele>1303.6850586648</ele><time>2011-04-10T10:38:29Z</time></trkpt>
<trkpt lat="46.48508100" lon="6.15018900"><ele>1307.0495605464</ele><time>2011-04-10T10:38:45Z</time></trkpt>
<trkpt lat="46.48501200" lon="6.14961500"><ele>1307.0495605464</ele><time>2011-04-10T10:39:01Z</time></trkpt>
<trkpt lat="46.48491600" lon="6.14890600"><ele>1309.9335936912</ele><time>2011-04-10T10:39:18Z</time></trkpt>
<trkpt lat="46.48479100" lon="6.14787500"><ele>1311.8564452176</ele><time>2011-04-10T10:39:43Z</time></trkpt>
<trkpt lat="46.48474200" lon="6.14744200"><ele>1315.220947404</ele><time>2011-04-10T10:39:54Z</time></trkpt>
<trkpt lat="46.48474000" lon="6.14740600"><ele>1315.220947404</ele><time>2011-04-10T10:39:55Z</time></trkpt>
<trkpt lat="46.48468700" lon="6.14693900"><ele>1317.6240235224</ele><time>2011-04-10T10:40:07Z</time></trkpt>
<trkpt lat="46.48448900" lon="6.14643100"><ele>1318.5854492856</ele><time>2011-04-10T10:40:22Z</time></trkpt>
<trkpt lat="46.48405600" lon="6.14597400"><ele>1319.5468750488</ele><time>2011-04-10T10:40:41Z</time></trkpt>
<trkpt lat="46.48367900" lon="6.14529200"><ele>1319.5468750488</ele><time>2011-04-10T10:41:01Z</time></trkpt>
<trkpt lat="46.48334700" lon="6.14469400"><ele>1319.0661621672</ele><time>2011-04-10T10:41:16Z</time></trkpt>
<trkpt lat="46.48324000" lon="6.14398300"><ele>1320.5080566672</ele><time>2011-04-10T10:41:31Z</time></trkpt>
<trkpt lat="46.48347300" lon="6.14338800"><ele>1321.9499511672</ele><time>2011-04-10T10:41:46Z</time></trkpt>
<trkpt lat="46.48363200" lon="6.14301000"><ele>1324.3535155752</ele><time>2011-04-10T10:41:59Z</time></trkpt>
<trkpt lat="46.48365100" lon="6.14294200"><ele>1325.7954100752</ele><time>2011-04-10T10:42:02Z</time></trkpt>
<trkpt lat="46.48367500" lon="6.14255300"><ele>1326.7568358384</ele><time>2011-04-10T10:42:18Z</time></trkpt>
<trkpt lat="46.48353800" lon="6.14206500"><ele>1329.6406251432</ele><time>2011-04-10T10:42:41Z</time></trkpt>
<trkpt lat="46.48339000" lon="6.14162300"><ele>1331.5632325248</ele><time>2011-04-10T10:43:02Z</time></trkpt>
<trkpt lat="46.48330000" lon="6.14137500"><ele>1335.408447288</ele><time>2011-04-10T10:43:14Z</time></trkpt>
<trkpt lat="46.48320300" lon="6.14102600"><ele>1335.8891601696</ele><time>2011-04-10T10:43:30Z</time></trkpt>
<trkpt lat="46.48317200" lon="6.14085800"><ele>1335.8891601696</ele><time>2011-04-10T10:43:38Z</time></trkpt>
<trkpt lat="46.48315000" lon="6.14066800"><ele>1337.8117675512</ele><time>2011-04-10T10:43:46Z</time></trkpt>
<trkpt lat="46.48309700" lon="6.14017500"><ele>1339.2536620512</ele><time>2011-04-10T10:44:08Z</time></trkpt>
<trkpt lat="46.48310200" lon="6.13986100"><ele>1341.6572264592</ele><time>2011-04-10T10:44:23Z</time></trkpt>
<trkpt lat="46.48311000" lon="6.13985000"><ele>1340.695800696</ele><time>2011-04-10T10:44:45Z</time></trkpt>
<trkpt lat="46.48311500" lon="6.13984600"><ele>1341.6572264592</ele><time>2011-04-10T10:45:14Z</time></trkpt>
<trkpt lat="46.48322600" lon="6.13964400"><ele>1344.0605470272</ele><time>2011-04-10T10:45:50Z</time></trkpt>
<trkpt lat="46.48338100" lon="6.13943700"><ele>1347.4250489088</ele><time>2011-04-10T10:46:04Z</time></trkpt>
<trkpt lat="46.48366600" lon="6.13921700"><ele>1349.828369172</ele><time>2011-04-10T10:46:25Z</time></trkpt>
<trkpt lat="46.48381200" lon="6.13878600"><ele>1352.712158172</ele><time>2011-04-10T10:46:48Z</time></trkpt>
<trkpt lat="46.48385500" lon="6.13841000"><ele>1355.5961913168</ele><time>2011-04-10T10:47:05Z</time></trkpt>
<trkpt lat="46.48381700" lon="6.13804600"><ele>1357.5190428432</ele><time>2011-04-10T10:47:22Z</time></trkpt>
<trkpt lat="46.48360300" lon="6.13760300"><ele>1360.402832148</ele><time>2011-04-10T10:47:46Z</time></trkpt>
<trkpt lat="46.48351100" lon="6.13743800"><ele>1364.2480469112</ele><time>2011-04-10T10:47:56Z</time></trkpt>
<trkpt lat="46.48334700" lon="6.13714100"><ele>1365.2094726744</ele><time>2011-04-10T10:48:14Z</time></trkpt>
<trkpt lat="46.48330800" lon="6.13708500"><ele>1365.690185556</ele><time>2011-04-10T10:48:18Z</time></trkpt>
<trkpt lat="46.48319700" lon="6.13678700"><ele>1369.0546874376</ele><time>2011-04-10T10:48:35Z</time></trkpt>
<trkpt lat="46.48313800" lon="6.13661200"><ele>1370.4965819376</ele><time>2011-04-10T10:48:44Z</time></trkpt>
<trkpt lat="46.48305800" lon="6.13624300"><ele>1373.8613282688</ele><time>2011-04-10T10:49:03Z</time></trkpt>
<trkpt lat="46.48312900" lon="6.13589100"><ele>1373.8613282688</ele><time>2011-04-10T10:49:20Z</time></trkpt>
<trkpt lat="46.48336100" lon="6.13561900"><ele>1375.7839356504</ele><time>2011-04-10T10:49:39Z</time></trkpt>
<trkpt lat="46.48371000" lon="6.13556700"><ele>1378.6679687952</ele><time>2011-04-10T10:50:01Z</time></trkpt>
<trkpt lat="46.48405700" lon="6.13568200"><ele>1381.5517577952</ele><time>2011-04-10T10:50:22Z</time></trkpt>
<trkpt lat="46.48425700" lon="6.13551500"><ele>1383.9550780584</ele><time>2011-04-10T10:50:38Z</time></trkpt>
<trkpt lat="46.48456900" lon="6.13542700"><ele>1380.5905761768</ele><time>2011-04-10T10:50:50Z</time></trkpt>
<trkpt lat="46.48460200" lon="6.13541500"><ele>1380.1098632952</ele><time>2011-04-10T10:50:51Z</time></trkpt>
<trkpt lat="46.48480400" lon="6.13533500"><ele>1378.6679687952</ele><time>2011-04-10T10:50:54Z</time></trkpt>
<trkpt lat="46.48487700" lon="6.13531700"><ele>1377.2260742952</ele><time>2011-04-10T10:50:55Z</time></trkpt>
<trkpt lat="46.48509700" lon="6.13531200"><ele>1375.7839356504</ele><time>2011-04-10T10:50:58Z</time></trkpt>
<trkpt lat="46.48529000" lon="6.13538900"><ele>1377.706543032</ele><time>2011-04-10T10:51:01Z</time></trkpt>
<trkpt lat="46.48548600" lon="6.13553600"><ele>1379.148437532</ele><time>2011-04-10T10:51:09Z</time></trkpt>
<trkpt lat="46.48556600" lon="6.13561500"><ele>1380.5905761768</ele><time>2011-04-10T10:51:15Z</time></trkpt>
<trkpt lat="46.48569200" lon="6.13573600"><ele>1383.9550780584</ele><time>2011-04-10T10:51:25Z</time></trkpt>
<trkpt lat="46.48580200" lon="6.13586900"><ele>1387.31957994</ele><time>2011-04-10T10:51:36Z</time></trkpt>
<trkpt lat="46.48581400" lon="6.13588300"><ele>1387.31957994</ele><time>2011-04-10T10:51:37Z</time></trkpt>
<trkpt lat="46.48591500" lon="6.13600000"><ele>1389.2424317712</ele><time>2011-04-10T10:51:53Z</time></trkpt>
<trkpt lat="46.48587200" lon="6.13608900"><ele>1390.2038575344</ele><time>2011-04-10T10:53:01Z</time></trkpt>
<trkpt lat="46.48604700" lon="6.13615800"><ele>1394.0490722976</ele><time>2011-04-10T10:53:13Z</time></trkpt>
<trkpt lat="46.48624600" lon="6.13618900"><ele>1396.9328612976</ele><time>2011-04-10T10:53:24Z</time></trkpt>
<trkpt lat="46.48654000" lon="6.13629100"><ele>1401.739501824</ele><time>2011-04-10T10:53:48Z</time></trkpt>
<trkpt lat="46.48673300" lon="6.13644800"><ele>1403.6621095104</ele><time>2011-04-10T10:54:20Z</time></trkpt>
<trkpt lat="46.48691400" lon="6.13668400"><ele>1407.5075684184</ele><time>2011-04-10T10:54:37Z</time></trkpt>
<trkpt lat="46.48706900" lon="6.13687200"><ele>1410.8720703</ele><time>2011-04-10T10:54:52Z</time></trkpt>
<trkpt lat="46.48726000" lon="6.13689000"><ele>1413.2753905632</ele><time>2011-04-10T10:55:05Z</time></trkpt>
<trkpt lat="46.48742900" lon="6.13664200"><ele>1415.6787108264</ele><time>2011-04-10T10:55:22Z</time></trkpt>
<trkpt lat="46.48743400" lon="6.13655400"><ele>1416.1591795632</ele><time>2011-04-10T10:55:26Z</time></trkpt>
<trkpt lat="46.48736600" lon="6.13618800"><ele>1419.0432130128</ele><time>2011-04-10T10:55:44Z</time></trkpt>
<trkpt lat="46.48730200" lon="6.13574400"><ele>1420.9660645392</ele><time>2011-04-10T10:56:05Z</time></trkpt>
<trkpt lat="46.48725900" lon="6.13520500"><ele>1424.8112793024</ele><time>2011-04-10T10:56:29Z</time></trkpt>
<trkpt lat="46.48730300" lon="6.13489100"><ele>1424.3305664208</ele><time>2011-04-10T10:56:42Z</time></trkpt>
<trkpt lat="46.48736900" lon="6.13483900"><ele>1424.3305664208</ele><time>2011-04-10T10:56:45Z</time></trkpt>
<trkpt lat="46.48761600" lon="6.13457100"><ele>1426.2531738024</ele><time>2011-04-10T10:57:02Z</time></trkpt>
<trkpt lat="46.48786800" lon="6.13445000"><ele>1429.617675684</ele><time>2011-04-10T10:57:18Z</time></trkpt>
<trkpt lat="46.48807900" lon="6.13432800"><ele>1432.9821778704</ele><time>2011-04-10T10:57:31Z</time></trkpt>
<trkpt lat="46.48821300" lon="6.13418700"><ele>1435.8662110152</ele><time>2011-04-10T10:57:41Z</time></trkpt>
<trkpt lat="46.48831600" lon="6.13388800"><ele>1437.7890625416</ele><time>2011-04-10T10:57:58Z</time></trkpt>
<trkpt lat="46.48818900" lon="6.13360200"><ele>1440.1923828048</ele><time>2011-04-10T10:58:14Z</time></trkpt>
<trkpt lat="46.48793400" lon="6.13330300"><ele>1441.1535644232</ele><time>2011-04-10T10:58:36Z</time></trkpt>
<trkpt lat="46.48773000" lon="6.13296800"><ele>1444.037597568</ele><time>2011-04-10T10:58:55Z</time></trkpt>
<trkpt lat="46.48755000" lon="6.13262200"><ele>1445.9602049496</ele><time>2011-04-10T10:59:14Z</time></trkpt>
<trkpt lat="46.48733900" lon="6.13235800"><ele>1448.3632813728</ele><time>2011-04-10T10:59:32Z</time></trkpt>
<trkpt lat="46.48726400" lon="6.13222000"><ele>1448.8439942544</ele><time>2011-04-10T10:59:49Z</time></trkpt>
<trkpt lat="46.48716300" lon="6.13196100"><ele>1450.2861328992</ele><time>2011-04-10T11:00:20Z</time></trkpt>
<trkpt lat="46.48701200" lon="6.13156700"><ele>1453.170166044</ele><time>2011-04-10T11:00:38Z</time></trkpt>
<trkpt lat="46.48700100" lon="6.13150200"><ele>1454.1315918072</ele><time>2011-04-10T11:00:40Z</time></trkpt>
<trkpt lat="46.48699500" lon="6.13140600"><ele>1456.053955044</ele><time>2011-04-10T11:00:43Z</time></trkpt>
<trkpt lat="46.48700800" lon="6.13127800"><ele>1457.0153808072</ele><time>2011-04-10T11:00:47Z</time></trkpt>
<trkpt lat="46.48699700" lon="6.13104100"><ele>1460.8605955704</ele><time>2011-04-10T11:00:56Z</time></trkpt>
<trkpt lat="46.48693500" lon="6.13071600"><ele>1461.8220213336</ele><time>2011-04-10T11:01:12Z</time></trkpt>
<trkpt lat="46.48677700" lon="6.13028200"><ele>1461.341308452</ele><time>2011-04-10T11:01:28Z</time></trkpt>
<trkpt lat="46.48669600" lon="6.12997600"><ele>1461.341308452</ele><time>2011-04-10T11:01:41Z</time></trkpt>
<trkpt lat="46.48674900" lon="6.12964700"><ele>1462.3024903752</ele><time>2011-04-10T11:01:57Z</time></trkpt>
<trkpt lat="46.48696600" lon="6.12944400"><ele>1462.7832032568</ele><time>2011-04-10T11:02:12Z</time></trkpt>
<trkpt lat="46.48739500" lon="6.12950200"><ele>1460.3798826888</ele><time>2011-04-10T11:02:25Z</time></trkpt>
<trkpt lat="46.48797300" lon="6.12988500"><ele>1459.8991698072</ele><time>2011-04-10T11:02:43Z</time></trkpt>
<trkpt lat="46.48807600" lon="6.13011900"><ele>1459.8991698072</ele><time>2011-04-10T11:02:48Z</time></trkpt>
<trkpt lat="46.48807800" lon="6.13025400"><ele>1460.3798826888</ele><time>2011-04-10T11:02:52Z</time></trkpt>
<trkpt lat="46.48815600" lon="6.13076800"><ele>1464.2250977568</ele><time>2011-04-10T11:03:08Z</time></trkpt>
<trkpt lat="46.48822400" lon="6.13174800"><ele>1466.1477051384</ele><time>2011-04-10T11:03:41Z</time></trkpt>
<trkpt lat="46.48848900" lon="6.13199100"><ele>1467.1091309016</ele><time>2011-04-10T11:03:59Z</time></trkpt>
<trkpt lat="46.48861300" lon="6.13208700"><ele>1469.9931640464</ele><time>2011-04-10T11:04:08Z</time></trkpt>
<trkpt lat="46.48872200" lon="6.13235500"><ele>1473.3579100728</ele><time>2011-04-10T11:04:21Z</time></trkpt>
<trkpt lat="46.48875900" lon="6.13241500"><ele>1473.8383788096</ele><time>2011-04-10T11:04:36Z</time></trkpt>
<trkpt lat="46.48878400" lon="6.13240500"><ele>1474.7998045728</ele><time>2011-04-10T11:05:47Z</time></trkpt>
<trkpt lat="46.48882400" lon="6.13243100"><ele>1473.3579100728</ele><time>2011-04-10T11:05:49Z</time></trkpt>
<trkpt lat="46.48882400" lon="6.13243100"><ele>1470.473876928</ele><time>2011-04-10T11:05:50Z</time></trkpt>
<trkpt lat="46.48882300" lon="6.13243100"><ele>1470.473876928</ele><time>2011-04-10T11:05:51Z</time></trkpt>
<trkpt lat="46.48882200" lon="6.13243100"><ele>1473.8383788096</ele><time>2011-04-10T11:05:53Z</time></trkpt>
<trkpt lat="46.48882100" lon="6.13243100"><ele>1473.3579100728</ele><time>2011-04-10T11:05:54Z</time></trkpt>
<trkpt lat="46.48880600" lon="6.13242200"><ele>1479.6062012592</ele><time>2011-04-10T11:06:15Z</time></trkpt>
<trkpt lat="46.48880600" lon="6.13242200"><ele>1474.3190916912</ele><time>2011-04-10T11:06:16Z</time></trkpt>
<trkpt lat="46.48880600" lon="6.13242200"><ele>1472.3964843096</ele><time>2011-04-10T11:06:18Z</time></trkpt>
<trkpt lat="46.48880500" lon="6.13242200"><ele>1475.7609861912</ele><time>2011-04-10T11:06:20Z</time></trkpt>
<trkpt lat="46.48880300" lon="6.13242300"><ele>1479.1254883776</ele><time>2011-04-10T11:06:26Z</time></trkpt>
<trkpt lat="46.48880200" lon="6.13242300"><ele>1475.7609861912</ele><time>2011-04-10T11:06:27Z</time></trkpt>
<trkpt lat="46.48880200" lon="6.13242400"><ele>1474.3190916912</ele><time>2011-04-10T11:06:29Z</time></trkpt>
<trkpt lat="46.48881100" lon="6.13245400"><ele>1473.8383788096</ele><time>2011-04-10T11:06:41Z</time></trkpt>
<trkpt lat="46.48908600" lon="6.13251400"><ele>1476.2416990728</ele><time>2011-04-10T11:06:59Z</time></trkpt>
<trkpt lat="46.48939800" lon="6.13248700"><ele>1477.6835938776</ele><time>2011-04-10T11:07:17Z</time></trkpt>
<trkpt lat="46.48966900" lon="6.13243900"><ele>1479.1254883776</ele><time>2011-04-10T11:07:33Z</time></trkpt>
<trkpt lat="46.48968200" lon="6.13244700"><ele>1478.6450196408</ele><time>2011-04-10T11:07:34Z</time></trkpt>
<trkpt lat="46.48975300" lon="6.13245700"><ele>1479.1254883776</ele><time>2011-04-10T11:07:39Z</time></trkpt>
<trkpt lat="46.49009600" lon="6.13251000"><ele>1480.5676270224</ele><time>2011-04-10T11:07:58Z</time></trkpt>
<trkpt lat="46.49047200" lon="6.13263700"><ele>1480.5676270224</ele><time>2011-04-10T11:08:19Z</time></trkpt>
<trkpt lat="46.49062000" lon="6.13297800"><ele>1483.4514160224</ele><time>2011-04-10T11:08:34Z</time></trkpt>
<trkpt lat="46.49090400" lon="6.13308900"><ele>1484.893798812</ele><time>2011-04-10T11:08:48Z</time></trkpt>
<trkpt lat="46.49124000" lon="6.13329600"><ele>1486.335693312</ele><time>2011-04-10T11:09:07Z</time></trkpt>
<trkpt lat="46.49178100" lon="6.13331400"><ele>1485.8549804304</ele><time>2011-04-10T11:09:29Z</time></trkpt>
<trkpt lat="46.49237500" lon="6.13340300"><ele>1482.9707031408</ele><time>2011-04-10T11:09:41Z</time></trkpt>
<trkpt lat="46.49259400" lon="6.13346000"><ele>1481.5288086408</ele><time>2011-04-10T11:09:45Z</time></trkpt>
<trkpt lat="46.49316500" lon="6.13347300"><ele>1476.2416990728</ele><time>2011-04-10T11:09:56Z</time></trkpt>
<trkpt lat="46.49354300" lon="6.13351200"><ele>1473.8383788096</ele><time>2011-04-10T11:10:06Z</time></trkpt>
<trkpt lat="46.49375000" lon="6.13348800"><ele>1472.3964843096</ele><time>2011-04-10T11:10:11Z</time></trkpt>
<trkpt lat="46.49423300" lon="6.13333000"><ele>1470.9545898096</ele><time>2011-04-10T11:10:22Z</time></trkpt>
<trkpt lat="46.49426100" lon="6.13336900"><ele>1471.4350585464</ele><time>2011-04-10T11:10:24Z</time></trkpt>
<trkpt lat="46.49449200" lon="6.13361500"><ele>1475.2802733096</ele><time>2011-04-10T11:10:39Z</time></trkpt>
<trkpt lat="46.49479900" lon="6.13383300"><ele>1478.1643067592</ele><time>2011-04-10T11:10:55Z</time></trkpt>
<trkpt lat="46.49513300" lon="6.13394800"><ele>1480.5676270224</ele><time>2011-04-10T11:11:13Z</time></trkpt>
<trkpt lat="46.49524400" lon="6.13398100"><ele>1479.6062012592</ele><time>2011-04-10T11:11:19Z</time></trkpt>
<trkpt lat="46.49546900" lon="6.13388000"><ele>1479.1254883776</ele><time>2011-04-10T11:11:30Z</time></trkpt>
<trkpt lat="46.49579700" lon="6.13393200"><ele>1481.048339904</ele><time>2011-04-10T11:11:44Z</time></trkpt>
<trkpt lat="46.49627100" lon="6.13393100"><ele>1479.6062012592</ele><time>2011-04-10T11:12:02Z</time></trkpt>
<trkpt lat="46.49700100" lon="6.13390800"><ele>1478.6450196408</ele><time>2011-04-10T11:12:23Z</time></trkpt>
<trkpt lat="46.49743500" lon="6.13396400"><ele>1477.6835938776</ele><time>2011-04-10T11:12:36Z</time></trkpt>
<trkpt lat="46.49771600" lon="6.13413400"><ele>1479.6062012592</ele><time>2011-04-10T11:12:45Z</time></trkpt>
<trkpt lat="46.49776700" lon="6.13408800"><ele>1479.1254883776</ele><time>2011-04-10T11:12:55Z</time></trkpt>
<trkpt lat="46.49777100" lon="6.13406100"><ele>1481.048339904</ele><time>2011-04-10T11:13:04Z</time></trkpt>
<trkpt lat="46.49776600" lon="6.13396900"><ele>1480.5676270224</ele><time>2011-04-10T11:13:08Z</time></trkpt>
<trkpt lat="46.49791000" lon="6.13395000"><ele>1477.2031251408</ele><time>2011-04-10T11:13:19Z</time></trkpt>
<trkpt lat="46.49791100" lon="6.13395500"><ele>1478.1643067592</ele><time>2011-04-10T11:13:26Z</time></trkpt>
<trkpt lat="46.49814700" lon="6.13386900"><ele>1476.7224122592</ele><time>2011-04-10T11:13:39Z</time></trkpt>
<trkpt lat="46.49822200" lon="6.13379800"><ele>1475.7609861912</ele><time>2011-04-10T11:13:49Z</time></trkpt>
<trkpt lat="46.49833200" lon="6.13368400"><ele>1474.7998045728</ele><time>2011-04-10T11:13:53Z</time></trkpt>
<trkpt lat="46.49849600" lon="6.13321400"><ele>1472.8771971912</ele><time>2011-04-10T11:14:05Z</time></trkpt>
<trkpt lat="46.49845400" lon="6.13288200"><ele>1471.4350585464</ele><time>2011-04-10T11:14:18Z</time></trkpt>
<trkpt lat="46.49845300" lon="6.13288100"><ele>1470.9545898096</ele><time>2011-04-10T11:14:20Z</time></trkpt>
<trkpt lat="46.49845100" lon="6.13281600"><ele>1469.9931640464</ele><time>2011-04-10T11:14:23Z</time></trkpt>
<trkpt lat="46.49838800" lon="6.13250500"><ele>1469.5126953096</ele><time>2011-04-10T11:14:36Z</time></trkpt>
<trkpt lat="46.49829400" lon="6.13226300"><ele>1469.5126953096</ele><time>2011-04-10T11:14:50Z</time></trkpt>
<trkpt lat="46.49828200" lon="6.13219400"><ele>1469.5126953096</ele><time>2011-04-10T11:14:55Z</time></trkpt>
<trkpt lat="46.49816700" lon="6.13200600"><ele>1468.0705566648</ele><time>2011-04-10T11:15:05Z</time></trkpt>
<trkpt lat="46.49808700" lon="6.13190700"><ele>1464.7058106384</ele><time>2011-04-10T11:15:16Z</time></trkpt>
<trkpt lat="46.49806300" lon="6.13189500"><ele>1465.6672364016</ele><time>2011-04-10T11:15:35Z</time></trkpt>
<trkpt lat="46.49801300" lon="6.13183200"><ele>1462.7832032568</ele><time>2011-04-10T11:15:47Z</time></trkpt>
<trkpt lat="46.49800600" lon="6.13185400"><ele>1462.7832032568</ele><time>2011-04-10T11:15:59Z</time></trkpt>
<trkpt lat="46.49794800" lon="6.13196200"><ele>1461.8220213336</ele><time>2011-04-10T11:16:04Z</time></trkpt>
<trkpt lat="46.49790000" lon="6.13194300"><ele>1458.9379881888</ele><time>2011-04-10T11:16:07Z</time></trkpt>
<trkpt lat="46.49781600" lon="6.13183400"><ele>1456.053955044</ele><time>2011-04-10T11:16:13Z</time></trkpt>
<trkpt lat="46.49778400" lon="6.13181000"><ele>1454.612060544</ele><time>2011-04-10T11:16:16Z</time></trkpt>
<trkpt lat="46.49776200" lon="6.13178600"><ele>1453.170166044</ele><time>2011-04-10T11:16:25Z</time></trkpt>
<trkpt lat="46.49761900" lon="6.13163600"><ele>1449.324707136</ele><time>2011-04-10T11:16:33Z</time></trkpt>
<trkpt lat="46.49754600" lon="6.13148900"><ele>1445.479492068</ele><time>2011-04-10T11:16:37Z</time></trkpt>
<trkpt lat="46.49747500" lon="6.13132100"><ele>1442.1149901864</ele><time>2011-04-10T11:16:40Z</time></trkpt>
<trkpt lat="46.49740500" lon="6.13117200"><ele>1440.1923828048</ele><time>2011-04-10T11:16:43Z</time></trkpt>
<trkpt lat="46.49725300" lon="6.13097700"><ele>1437.30834966</ele><time>2011-04-10T11:16:49Z</time></trkpt>
<trkpt lat="46.49720500" lon="6.13093400"><ele>1435.8662110152</ele><time>2011-04-10T11:16:51Z</time></trkpt>
<trkpt lat="46.49718100" lon="6.13089700"><ele>1435.3854981336</ele><time>2011-04-10T11:16:57Z</time></trkpt>
<trkpt lat="46.49714800" lon="6.13088400"><ele>1434.9050293968</ele><time>2011-04-10T11:17:06Z</time></trkpt>
<trkpt lat="46.49704300" lon="6.13093900"><ele>1436.3471680416</ele><time>2011-04-10T11:17:12Z</time></trkpt>
<trkpt lat="46.49700900" lon="6.13091000"><ele>1436.3471680416</ele><time>2011-04-10T11:17:14Z</time></trkpt>
<trkpt lat="46.49677800" lon="6.13075900"><ele>1436.3471680416</ele><time>2011-04-10T11:17:28Z</time></trkpt>
<trkpt lat="46.49669400" lon="6.13072600"><ele>1436.8276367784</ele><time>2011-04-10T11:17:32Z</time></trkpt>
<trkpt lat="46.49658800" lon="6.13071300"><ele>1435.8662110152</ele><time>2011-04-10T11:17:36Z</time></trkpt>
<trkpt lat="46.49646300" lon="6.13066200"><ele>1435.3854981336</ele><time>2011-04-10T11:17:44Z</time></trkpt>
<trkpt lat="46.49637700" lon="6.13064700"><ele>1435.3854981336</ele><time>2011-04-10T11:18:35Z</time></trkpt>
<trkpt lat="46.49625700" lon="6.13058100"><ele>1432.9821778704</ele><time>2011-04-10T11:18:38Z</time></trkpt>
<trkpt lat="46.49616700" lon="6.13053400"><ele>1432.0209959472</ele><time>2011-04-10T11:18:40Z</time></trkpt>
<trkpt lat="46.49576700" lon="6.13034800"><ele>1432.0209959472</ele><time>2011-04-10T11:18:53Z</time></trkpt>
<trkpt lat="46.49574300" lon="6.13037500"><ele>1432.5017091336</ele><time>2011-04-10T11:19:22Z</time></trkpt>
<trkpt lat="46.49561100" lon="6.13035500"><ele>1433.462890752</ele><time>2011-04-10T11:19:37Z</time></trkpt>
<trkpt lat="46.49540100" lon="6.13029500"><ele>1435.8662110152</ele><time>2011-04-10T11:19:50Z</time></trkpt>
<trkpt lat="46.49524600" lon="6.13026200"><ele>1436.8276367784</ele><time>2011-04-10T11:20:06Z</time></trkpt>
<trkpt lat="46.49524900" lon="6.13027300"><ele>1437.7890625416</ele><time>2011-04-10T11:20:17Z</time></trkpt>
<trkpt lat="46.49520000" lon="6.13029900"><ele>1437.7890625416</ele><time>2011-04-10T11:20:21Z</time></trkpt>
<trkpt lat="46.49515600" lon="6.13025700"><ele>1437.7890625416</ele><time>2011-04-10T11:20:25Z</time></trkpt>
<trkpt lat="46.49503600" lon="6.13016100"><ele>1438.7504883048</ele><time>2011-04-10T11:20:33Z</time></trkpt>
<trkpt lat="46.49499000" lon="6.13007200"><ele>1439.7116699232</ele><time>2011-04-10T11:20:37Z</time></trkpt>
<trkpt lat="46.49493100" lon="6.13001900"><ele>1437.7890625416</ele><time>2011-04-10T11:20:41Z</time></trkpt>
<trkpt lat="46.49457600" lon="6.12991900"><ele>1441.6342773048</ele><time>2011-04-10T11:21:01Z</time></trkpt>
<trkpt lat="46.49451400" lon="6.12987900"><ele>1442.1149901864</ele><time>2011-04-10T11:21:15Z</time></trkpt>
<trkpt lat="46.49440500" lon="6.12985700"><ele>1442.595703068</ele><time>2011-04-10T11:21:30Z</time></trkpt>
<trkpt lat="46.49432800" lon="6.12985400"><ele>1443.0761718048</ele><time>2011-04-10T11:21:45Z</time></trkpt>
<trkpt lat="46.49424800" lon="6.12986500"><ele>1444.9987791864</ele><time>2011-04-10T11:21:51Z</time></trkpt>
<trkpt lat="46.49419400" lon="6.12984600"><ele>1445.479492068</ele><time>2011-04-10T11:21:55Z</time></trkpt>
<trkpt lat="46.49392900" lon="6.12973500"><ele>1447.4020997544</ele><time>2011-04-10T11:22:14Z</time></trkpt>
<trkpt lat="46.49371800" lon="6.12968900"><ele>1448.8439942544</ele><time>2011-04-10T11:22:29Z</time></trkpt>
<trkpt lat="46.49352200" lon="6.12966400"><ele>1450.766601636</ele><time>2011-04-10T11:22:44Z</time></trkpt>
<trkpt lat="46.49343200" lon="6.12966100"><ele>1453.170166044</ele><time>2011-04-10T11:22:51Z</time></trkpt>
<trkpt lat="46.49326200" lon="6.12961100"><ele>1457.0153808072</ele><time>2011-04-10T11:23:04Z</time></trkpt>
<trkpt lat="46.49321300" lon="6.12957100"><ele>1457.0153808072</ele><time>2011-04-10T11:23:09Z</time></trkpt>
<trkpt lat="46.49295000" lon="6.12950900"><ele>1456.5346679256</ele><time>2011-04-10T11:23:25Z</time></trkpt>
<trkpt lat="46.49289500" lon="6.12948200"><ele>1457.0153808072</ele><time>2011-04-10T11:23:29Z</time></trkpt>
<trkpt lat="46.49287100" lon="6.12945200"><ele>1457.4960936888</ele><time>2011-04-10T11:23:31Z</time></trkpt>
<trkpt lat="46.49278600" lon="6.12941300"><ele>1456.5346679256</ele><time>2011-04-10T11:23:36Z</time></trkpt>
<trkpt lat="46.49262600" lon="6.12937800"><ele>1455.5734863072</ele><time>2011-04-10T11:23:48Z</time></trkpt>
<trkpt lat="46.49242900" lon="6.12929600"><ele>1456.053955044</ele><time>2011-04-10T11:24:02Z</time></trkpt>
<trkpt lat="46.49225900" lon="6.12922600"><ele>1458.4572753072</ele><time>2011-04-10T11:24:16Z</time></trkpt>
<trkpt lat="46.49221700" lon="6.12918900"><ele>1460.3798826888</ele><time>2011-04-10T11:24:33Z</time></trkpt>
<trkpt lat="46.49214800" lon="6.12918000"><ele>1462.3024903752</ele><time>2011-04-10T11:24:48Z</time></trkpt>
<trkpt lat="46.49209600" lon="6.12914200"><ele>1463.2639161384</ele><time>2011-04-10T11:25:01Z</time></trkpt>
<trkpt lat="46.49195600" lon="6.12916600"><ele>1464.2250977568</ele><time>2011-04-10T11:25:19Z</time></trkpt>
<trkpt lat="46.49195500" lon="6.12916500"><ele>1464.2250977568</ele><time>2011-04-10T11:25:21Z</time></trkpt>
<trkpt lat="46.49168100" lon="6.12902800"><ele>1464.7058106384</ele><time>2011-04-10T11:25:39Z</time></trkpt>
<trkpt lat="46.49165600" lon="6.12901400"><ele>1465.6672364016</ele><time>2011-04-10T11:25:49Z</time></trkpt>
<trkpt lat="46.49144600" lon="6.12891800"><ele>1465.18652352</ele><time>2011-04-10T11:26:01Z</time></trkpt>
<trkpt lat="46.49101000" lon="6.12868000"><ele>1465.18652352</ele><time>2011-04-10T11:26:20Z</time></trkpt>
<trkpt lat="46.49062800" lon="6.12836000"><ele>1461.8220213336</ele><time>2011-04-10T11:26:36Z</time></trkpt>
<trkpt lat="46.49022700" lon="6.12810300"><ele>1461.8220213336</ele><time>2011-04-10T11:26:53Z</time></trkpt>
<trkpt lat="46.49005000" lon="6.12798600"><ele>1459.8991698072</ele><time>2011-04-10T11:26:59Z</time></trkpt>
<trkpt lat="46.48996100" lon="6.12780000"><ele>1456.053955044</ele><time>2011-04-10T11:27:04Z</time></trkpt>
<trkpt lat="46.48967600" lon="6.12739300"><ele>1452.2087402808</ele><time>2011-04-10T11:27:12Z</time></trkpt>
<trkpt lat="46.48963900" lon="6.12734700"><ele>1452.2087402808</ele><time>2011-04-10T11:27:13Z</time></trkpt>
<trkpt lat="46.48937500" lon="6.12708200"><ele>1448.8439942544</ele><time>2011-04-10T11:27:20Z</time></trkpt>
<trkpt lat="46.48930200" lon="6.12700700"><ele>1447.882812636</ele><time>2011-04-10T11:27:22Z</time></trkpt>
<trkpt lat="46.48899700" lon="6.12678900"><ele>1447.882812636</ele><time>2011-04-10T11:27:33Z</time></trkpt>
<trkpt lat="46.48877200" lon="6.12653900"><ele>1448.8439942544</ele><time>2011-04-10T11:27:48Z</time></trkpt>
<trkpt lat="46.48858000" lon="6.12625000"><ele>1451.7280273992</ele><time>2011-04-10T11:28:05Z</time></trkpt>
<trkpt lat="46.48855800" lon="6.12622800"><ele>1452.6894531624</ele><time>2011-04-10T11:28:07Z</time></trkpt>
<trkpt lat="46.48853500" lon="6.12619300"><ele>1452.6894531624</ele><time>2011-04-10T11:28:29Z</time></trkpt>
<trkpt lat="46.48842000" lon="6.12616700"><ele>1454.1315918072</ele><time>2011-04-10T11:28:40Z</time></trkpt>
<trkpt lat="46.48836900" lon="6.12611700"><ele>1455.0927734256</ele><time>2011-04-10T11:28:45Z</time></trkpt>
<trkpt lat="46.48833700" lon="6.12609200"><ele>1455.0927734256</ele><time>2011-04-10T11:28:48Z</time></trkpt>
<trkpt lat="46.48826700" lon="6.12603300"><ele>1456.053955044</ele><time>2011-04-10T11:28:54Z</time></trkpt>
<trkpt lat="46.48821200" lon="6.12595900"><ele>1456.053955044</ele><time>2011-04-10T11:29:00Z</time></trkpt>
<trkpt lat="46.48814400" lon="6.12595500"><ele>1456.5346679256</ele><time>2011-04-10T11:29:06Z</time></trkpt>
<trkpt lat="46.48813000" lon="6.12590800"><ele>1456.5346679256</ele><time>2011-04-10T11:29:22Z</time></trkpt>
<trkpt lat="46.48816900" lon="6.12592500"><ele>1457.9768065704</ele><time>2011-04-10T11:30:45Z</time></trkpt>
<trkpt lat="46.48816200" lon="6.12583800"><ele>1458.4572753072</ele><time>2011-04-10T11:30:49Z</time></trkpt>
<trkpt lat="46.48798400" lon="6.12571400"><ele>1461.341308452</ele><time>2011-04-10T11:31:00Z</time></trkpt>
<trkpt lat="46.48781300" lon="6.12562700"><ele>1465.18652352</ele><time>2011-04-10T11:31:11Z</time></trkpt>
<trkpt lat="46.48773600" lon="6.12560200"><ele>1463.7443848752</ele><time>2011-04-10T11:31:28Z</time></trkpt>
<trkpt lat="46.48759400" lon="6.12554900"><ele>1463.7443848752</ele><time>2011-04-10T11:31:51Z</time></trkpt>
<trkpt lat="46.48748000" lon="6.12554100"><ele>1466.62841802</ele><time>2011-04-10T11:32:11Z</time></trkpt>
<trkpt lat="46.48729900" lon="6.12544400"><ele>1469.5126953096</ele><time>2011-04-10T11:32:30Z</time></trkpt>
<trkpt lat="46.48712900" lon="6.12534200"><ele>1470.473876928</ele><time>2011-04-10T11:32:48Z</time></trkpt>
<trkpt lat="46.48708900" lon="6.12531800"><ele>1471.4350585464</ele><time>2011-04-10T11:32:56Z</time></trkpt>
<trkpt lat="46.48682700" lon="6.12515400"><ele>1472.3964843096</ele><time>2011-04-10T11:33:16Z</time></trkpt>
<trkpt lat="46.48657600" lon="6.12508200"><ele>1475.2802733096</ele><time>2011-04-10T11:33:33Z</time></trkpt>
<trkpt lat="46.48637400" lon="6.12494200"><ele>1478.1643067592</ele><time>2011-04-10T11:33:49Z</time></trkpt>
<trkpt lat="46.48610400" lon="6.12475000"><ele>1478.6450196408</ele><time>2011-04-10T11:34:08Z</time></trkpt>
<trkpt lat="46.48584300" lon="6.12466700"><ele>1477.6835938776</ele><time>2011-04-10T11:34:20Z</time></trkpt>
<trkpt lat="46.48556600" lon="6.12452200"><ele>1478.1643067592</ele><time>2011-04-10T11:34:36Z</time></trkpt>
<trkpt lat="46.48512700" lon="6.12422400"><ele>1476.2416990728</ele><time>2011-04-10T11:34:53Z</time></trkpt>
<trkpt lat="46.48504000" lon="6.12412000"><ele>1474.3190916912</ele><time>2011-04-10T11:35:03Z</time></trkpt>
<trkpt lat="46.48498200" lon="6.12403000"><ele>1473.3579100728</ele><time>2011-04-10T11:35:08Z</time></trkpt>
<trkpt lat="46.48495700" lon="6.12386700"><ele>1469.9931640464</ele><time>2011-04-10T11:35:19Z</time></trkpt>
<trkpt lat="46.48492300" lon="6.12383400"><ele>1469.031982428</ele><time>2011-04-10T11:35:23Z</time></trkpt>
<trkpt lat="46.48483000" lon="6.12370300"><ele>1466.62841802</ele><time>2011-04-10T11:35:32Z</time></trkpt>
<trkpt lat="46.48469200" lon="6.12359300"><ele>1464.7058106384</ele><time>2011-04-10T11:35:38Z</time></trkpt>
<trkpt lat="46.48458000" lon="6.12366200"><ele>1463.2639161384</ele><time>2011-04-10T11:35:42Z</time></trkpt>
<trkpt lat="46.48447400" lon="6.12372000"><ele>1460.8605955704</ele><time>2011-04-10T11:35:46Z</time></trkpt>
<trkpt lat="46.48428600" lon="6.12368200"><ele>1457.4960936888</ele><time>2011-04-10T11:35:53Z</time></trkpt>
<trkpt lat="46.48404000" lon="6.12347000"><ele>1454.1315918072</ele><time>2011-04-10T11:36:02Z</time></trkpt>
<trkpt lat="46.48381700" lon="6.12318200"><ele>1451.2473145176</ele><time>2011-04-10T11:36:08Z</time></trkpt>
<trkpt lat="46.48376100" lon="6.12305300"><ele>1448.8439942544</ele><time>2011-04-10T11:36:10Z</time></trkpt>
<trkpt lat="46.48340300" lon="6.12261200"><ele>1444.9987791864</ele><time>2011-04-10T11:36:19Z</time></trkpt>
<trkpt lat="46.48333000" lon="6.12253300"><ele>1444.9987791864</ele><time>2011-04-10T11:36:21Z</time></trkpt>
<trkpt lat="46.48302500" lon="6.12230900"><ele>1441.1535644232</ele><time>2011-04-10T11:36:29Z</time></trkpt>
<trkpt lat="46.48297000" lon="6.12226700"><ele>1441.1535644232</ele><time>2011-04-10T11:36:30Z</time></trkpt>
<trkpt lat="46.48286200" lon="6.12219300"><ele>1440.1923828048</ele><time>2011-04-10T11:36:32Z</time></trkpt>
<trkpt lat="46.48270500" lon="6.12198400"><ele>1443.0761718048</ele><time>2011-04-10T11:36:41Z</time></trkpt>
<trkpt lat="46.48237200" lon="6.12167100"><ele>1443.0761718048</ele><time>2011-04-10T11:36:59Z</time></trkpt>
<trkpt lat="46.48216300" lon="6.12148500"><ele>1444.037597568</ele><time>2011-04-10T11:37:11Z</time></trkpt>
<trkpt lat="46.48196800" lon="6.12139200"><ele>1446.4409178312</ele><time>2011-04-10T11:37:25Z</time></trkpt>
<trkpt lat="46.48181300" lon="6.12126600"><ele>1447.882812636</ele><time>2011-04-10T11:37:39Z</time></trkpt>
<trkpt lat="46.48175400" lon="6.12123900"><ele>1448.3632813728</ele><time>2011-04-10T11:37:45Z</time></trkpt>
<trkpt lat="46.48177500" lon="6.12115400"><ele>1447.882812636</ele><time>2011-04-10T11:37:50Z</time></trkpt>
<trkpt lat="46.48183700" lon="6.12106700"><ele>1447.4020997544</ele><time>2011-04-10T11:37:55Z</time></trkpt>
<trkpt lat="46.48189100" lon="6.12095000"><ele>1447.882812636</ele><time>2011-04-10T11:38:02Z</time></trkpt>
<trkpt lat="46.48189000" lon="6.12090100"><ele>1449.8054200176</ele><time>2011-04-10T11:38:05Z</time></trkpt>
<trkpt lat="46.48187100" lon="6.12086700"><ele>1448.8439942544</ele><time>2011-04-10T11:38:07Z</time></trkpt>
<trkpt lat="46.48177600" lon="6.12070300"><ele>1448.3632813728</ele><time>2011-04-10T11:38:17Z</time></trkpt>
<trkpt lat="46.48177200" lon="6.12063900"><ele>1448.3632813728</ele><time>2011-04-10T11:38:33Z</time></trkpt>
<trkpt lat="46.48177000" lon="6.12055300"><ele>1449.324707136</ele><time>2011-04-10T11:38:47Z</time></trkpt>
<trkpt lat="46.48175200" lon="6.12046000"><ele>1450.766601636</ele><time>2011-04-10T11:38:57Z</time></trkpt>
<trkpt lat="46.48168200" lon="6.12022900"><ele>1448.3632813728</ele><time>2011-04-10T11:39:10Z</time></trkpt>
<trkpt lat="46.48157200" lon="6.12007800"><ele>1446.4409178312</ele><time>2011-04-10T11:39:22Z</time></trkpt>
<trkpt lat="46.48157300" lon="6.12007700"><ele>1445.479492068</ele><time>2011-04-10T11:39:24Z</time></trkpt>
<trkpt lat="46.48155000" lon="6.12009000"><ele>1445.9602049496</ele><time>2011-04-10T11:39:34Z</time></trkpt>
<trkpt lat="46.48150900" lon="6.12016400"><ele>1444.5180663048</ele><time>2011-04-10T11:39:39Z</time></trkpt>
<trkpt lat="46.48145000" lon="6.11997200"><ele>1442.595703068</ele><time>2011-04-10T11:39:48Z</time></trkpt>
<trkpt lat="46.48145000" lon="6.11993700"><ele>1442.595703068</ele><time>2011-04-10T11:39:49Z</time></trkpt>
<trkpt lat="46.48135500" lon="6.11932600"><ele>1442.595703068</ele><time>2011-04-10T11:40:01Z</time></trkpt>
<trkpt lat="46.48132800" lon="6.11923300"><ele>1442.595703068</ele><time>2011-04-10T11:40:05Z</time></trkpt>
<trkpt lat="46.48124400" lon="6.11879800"><ele>1441.1535644232</ele><time>2011-04-10T11:40:22Z</time></trkpt>
<trkpt lat="46.48125300" lon="6.11835700"><ele>1441.1535644232</ele><time>2011-04-10T11:40:40Z</time></trkpt>
<trkpt lat="46.48127200" lon="6.11820100"><ele>1439.7116699232</ele><time>2011-04-10T11:40:45Z</time></trkpt>
<trkpt lat="46.48116800" lon="6.11778400"><ele>1437.7890625416</ele><time>2011-04-10T11:41:01Z</time></trkpt>
<trkpt lat="46.48115400" lon="6.11761200"><ele>1435.8662110152</ele><time>2011-04-10T11:41:04Z</time></trkpt>
<trkpt lat="46.48106000" lon="6.11738600"><ele>1434.4243165152</ele><time>2011-04-10T11:41:09Z</time></trkpt>
<trkpt lat="46.48092400" lon="6.11720200"><ele>1432.9821778704</ele><time>2011-04-10T11:41:13Z</time></trkpt>
<trkpt lat="46.48081400" lon="6.11690600"><ele>1428.6564940656</ele><time>2011-04-10T11:41:18Z</time></trkpt>
<trkpt lat="46.48072900" lon="6.11676200"><ele>1428.175781184</ele><time>2011-04-10T11:41:20Z</time></trkpt>
<trkpt lat="46.48057000" lon="6.11662600"><ele>1426.733886684</ele><time>2011-04-10T11:41:23Z</time></trkpt>
<trkpt lat="46.48006900" lon="6.11621100"><ele>1426.733886684</ele><time>2011-04-10T11:41:37Z</time></trkpt>
<trkpt lat="46.47964000" lon="6.11576900"><ele>1424.3305664208</ele><time>2011-04-10T11:41:52Z</time></trkpt>
<trkpt lat="46.47922800" lon="6.11537500"><ele>1422.4079590392</ele><time>2011-04-10T11:42:06Z</time></trkpt>
<trkpt lat="46.47906800" lon="6.11526800"><ele>1420.004638776</ele><time>2011-04-10T11:42:11Z</time></trkpt>
<trkpt lat="46.47902900" lon="6.11524000"><ele>1419.0432130128</ele><time>2011-04-10T11:42:12Z</time></trkpt>
<trkpt lat="46.47852100" lon="6.11468300"><ele>1415.1979979448</ele><time>2011-04-10T11:42:24Z</time></trkpt>
<trkpt lat="46.47833300" lon="6.11445200"><ele>1412.3139648</ele><time>2011-04-10T11:42:28Z</time></trkpt>
<trkpt lat="46.47818000" lon="6.11429900"><ele>1408.9494629184</ele><time>2011-04-10T11:42:31Z</time></trkpt>
<trkpt lat="46.47798100" lon="6.11410400"><ele>1405.5849610368</ele><time>2011-04-10T11:42:35Z</time></trkpt>
<trkpt lat="46.47780300" lon="6.11372200"><ele>1402.7006834424</ele><time>2011-04-10T11:42:44Z</time></trkpt>
<trkpt lat="46.47780700" lon="6.11360300"><ele>1404.1430665368</ele><time>2011-04-10T11:42:50Z</time></trkpt>
<trkpt lat="46.47761400" lon="6.11335100"><ele>1401.739501824</ele><time>2011-04-10T11:42:58Z</time></trkpt>
<trkpt lat="46.47732200" lon="6.11321700"><ele>1397.8942870608</ele><time>2011-04-10T11:43:05Z</time></trkpt>
<trkpt lat="46.47722600" lon="6.11308000"><ele>1397.8942870608</ele><time>2011-04-10T11:43:10Z</time></trkpt>
<trkpt lat="46.47722500" lon="6.11298200"><ele>1397.8942870608</ele><time>2011-04-10T11:43:14Z</time></trkpt>
<trkpt lat="46.47725500" lon="6.11283500"><ele>1395.9716796792</ele><time>2011-04-10T11:43:19Z</time></trkpt>
<trkpt lat="46.47722300" lon="6.11270300"><ele>1392.6071777976</ele><time>2011-04-10T11:43:25Z</time></trkpt>
<trkpt lat="46.47721500" lon="6.11268300"><ele>1393.0876465344</ele><time>2011-04-10T11:43:26Z</time></trkpt>
<trkpt lat="46.47716100" lon="6.11254200"><ele>1390.6843262712</ele><time>2011-04-10T11:43:31Z</time></trkpt>
<trkpt lat="46.47711000" lon="6.11236800"><ele>1387.31957994</ele><time>2011-04-10T11:43:35Z</time></trkpt>
<trkpt lat="46.47708900" lon="6.11230600"><ele>1386.3583983216</ele><time>2011-04-10T11:43:36Z</time></trkpt>
<trkpt lat="46.47703100" lon="6.11220100"><ele>1385.3969725584</ele><time>2011-04-10T11:43:38Z</time></trkpt>
<trkpt lat="46.47693800" lon="6.11204700"><ele>1384.43579094</ele><time>2011-04-10T11:43:41Z</time></trkpt>
<trkpt lat="46.47683100" lon="6.11182300"><ele>1382.0324706768</ele><time>2011-04-10T11:43:45Z</time></trkpt>
<trkpt lat="46.47673900" lon="6.11167600"><ele>1380.1098632952</ele><time>2011-04-10T11:43:48Z</time></trkpt>
<trkpt lat="46.47651500" lon="6.11146700"><ele>1374.822754032</ele><time>2011-04-10T11:43:53Z</time></trkpt>
<trkpt lat="46.47635900" lon="6.11133700"><ele>1371.457763556</ele><time>2011-04-10T11:43:56Z</time></trkpt>
<trkpt lat="46.47620700" lon="6.11117600"><ele>1369.0546874376</ele><time>2011-04-10T11:43:59Z</time></trkpt>
<trkpt lat="46.47610800" lon="6.11107700"><ele>1365.2094726744</ele><time>2011-04-10T11:44:01Z</time></trkpt>
<trkpt lat="46.47588300" lon="6.11082600"><ele>1362.8061524112</ele><time>2011-04-10T11:44:06Z</time></trkpt>
<trkpt lat="46.47551600" lon="6.11048900"><ele>1358.4802244616</ele><time>2011-04-10T11:44:13Z</time></trkpt>
<trkpt lat="46.47546300" lon="6.11043700"><ele>1358.4802244616</ele><time>2011-04-10T11:44:14Z</time></trkpt>
<trkpt lat="46.47516100" lon="6.11007700"><ele>1355.1154784352</ele><time>2011-04-10T11:44:20Z</time></trkpt>
<trkpt lat="46.47506000" lon="6.10995500"><ele>1353.6735839352</ele><time>2011-04-10T11:44:22Z</time></trkpt>
<trkpt lat="46.47486600" lon="6.10973100"><ele>1350.3090820536</ele><time>2011-04-10T11:44:26Z</time></trkpt>
<trkpt lat="46.47471500" lon="6.10957800"><ele>1347.9057617904</ele><time>2011-04-10T11:44:29Z</time></trkpt>
<trkpt lat="46.47462500" lon="6.10946500"><ele>1346.4638672904</ele><time>2011-04-10T11:44:31Z</time></trkpt>
<trkpt lat="46.47446800" lon="6.10927100"><ele>1344.0605470272</ele><time>2011-04-10T11:44:35Z</time></trkpt>
<trkpt lat="46.47440300" lon="6.10916000"><ele>1342.6186522224</ele><time>2011-04-10T11:44:37Z</time></trkpt>
<trkpt lat="46.47435700" lon="6.10904000"><ele>1341.6572264592</ele><time>2011-04-10T11:44:39Z</time></trkpt>
<trkpt lat="46.47428000" lon="6.10888300"><ele>1339.7343749328</ele><time>2011-04-10T11:44:42Z</time></trkpt>
<trkpt lat="46.47418200" lon="6.10863500"><ele>1337.8117675512</ele><time>2011-04-10T11:44:49Z</time></trkpt>
<trkpt lat="46.47419100" lon="6.10864300"><ele>1337.8117675512</ele><time>2011-04-10T11:45:08Z</time></trkpt>
<trkpt lat="46.47408100" lon="6.10845200"><ele>1335.408447288</ele><time>2011-04-10T11:46:16Z</time></trkpt>
<trkpt lat="46.47397600" lon="6.10830000"><ele>1333.4858399064</ele><time>2011-04-10T11:46:19Z</time></trkpt>
<trkpt lat="46.47388400" lon="6.10824200"><ele>1333.4858399064</ele><time>2011-04-10T11:46:21Z</time></trkpt>
<trkpt lat="46.47350900" lon="6.10758600"><ele>1328.1987303384</ele><time>2011-04-10T11:46:31Z</time></trkpt>
<trkpt lat="46.47331300" lon="6.10710200"><ele>1325.3146971936</ele><time>2011-04-10T11:46:36Z</time></trkpt>
<trkpt lat="46.47318200" lon="6.10681400"><ele>1326.2761229568</ele><time>2011-04-10T11:46:41Z</time></trkpt>
<trkpt lat="46.47310300" lon="6.10696300"><ele>1325.3146971936</ele><time>2011-04-10T11:46:48Z</time></trkpt>
<trkpt lat="46.47301300" lon="6.10703400"><ele>1324.3535155752</ele><time>2011-04-10T11:46:51Z</time></trkpt>
<trkpt lat="46.47272700" lon="6.10686600"><ele>1322.4306640488</ele><time>2011-04-10T11:46:57Z</time></trkpt>
<trkpt lat="46.47258600" lon="6.10663800"><ele>1321.9499511672</ele><time>2011-04-10T11:47:00Z</time></trkpt>
<trkpt lat="46.47239600" lon="6.10643600"><ele>1320.0273437856</ele><time>2011-04-10T11:47:03Z</time></trkpt>
<trkpt lat="46.47201000" lon="6.10610000"><ele>1317.1435547856</ele><time>2011-04-10T11:47:10Z</time></trkpt>
<trkpt lat="46.47181500" lon="6.10597400"><ele>1315.7016602856</ele><time>2011-04-10T11:47:13Z</time></trkpt>
<trkpt lat="46.47168000" lon="6.10591700"><ele>1315.7016602856</ele><time>2011-04-10T11:47:15Z</time></trkpt>
<trkpt lat="46.47137900" lon="6.10603900"><ele>1314.259521336</ele><time>2011-04-10T11:47:20Z</time></trkpt>
<trkpt lat="46.47094000" lon="6.10658200"><ele>1315.220947404</ele><time>2011-04-10T11:47:32Z</time></trkpt>
<trkpt lat="46.47088500" lon="6.10666500"><ele>1314.259521336</ele><time>2011-04-10T11:47:34Z</time></trkpt>
<trkpt lat="46.47068900" lon="6.10703200"><ele>1311.375732336</ele><time>2011-04-10T11:47:39Z</time></trkpt>
<trkpt lat="46.47046300" lon="6.10720100"><ele>1309.9335936912</ele><time>2011-04-10T11:47:42Z</time></trkpt>
<trkpt lat="46.47010700" lon="6.10717500"><ele>1306.0881347832</ele><time>2011-04-10T11:47:46Z</time></trkpt>
<trkpt lat="46.46962700" lon="6.10684500"><ele>1301.7624512832</ele><time>2011-04-10T11:47:53Z</time></trkpt>
<trkpt lat="46.46904100" lon="6.10625500"><ele>1301.7624512832</ele><time>2011-04-10T11:48:04Z</time></trkpt>
<trkpt lat="46.46869300" lon="6.10588000"><ele>1302.7236329016</ele><time>2011-04-10T11:48:13Z</time></trkpt>
<trkpt lat="46.46807500" lon="6.10502600"><ele>1302.7236329016</ele><time>2011-04-10T11:48:29Z</time></trkpt>
<trkpt lat="46.46702300" lon="6.10414400"><ele>1295.513915952</ele><time>2011-04-10T11:48:46Z</time></trkpt>
<trkpt lat="46.46691100" lon="6.10406100"><ele>1295.0332030704</ele><time>2011-04-10T11:48:48Z</time></trkpt>
<trkpt lat="46.46685400" lon="6.10390200"><ele>1293.1105956888</ele><time>2011-04-10T11:48:50Z</time></trkpt>
<trkpt lat="46.46669300" lon="6.10331000"><ele>1289.2651367808</ele><time>2011-04-10T11:48:56Z</time></trkpt>
<trkpt lat="46.46666900" lon="6.10321200"><ele>1289.2651367808</ele><time>2011-04-10T11:48:57Z</time></trkpt>
<trkpt lat="46.46662700" lon="6.10301200"><ele>1287.3425293992</ele><time>2011-04-10T11:48:59Z</time></trkpt>
<trkpt lat="46.46663200" lon="6.10273600"><ele>1285.9006348992</ele><time>2011-04-10T11:49:01Z</time></trkpt>
<trkpt lat="46.46653700" lon="6.10243900"><ele>1283.4973143312</ele><time>2011-04-10T11:49:04Z</time></trkpt>
<trkpt lat="46.46627800" lon="6.10234400"><ele>1283.4973143312</ele><time>2011-04-10T11:49:08Z</time></trkpt>
<trkpt lat="46.46583800" lon="6.10234700"><ele>1281.5747069496</ele><time>2011-04-10T11:49:15Z</time></trkpt>
<trkpt lat="46.46550700" lon="6.10225900"><ele>1284.939452976</ele><time>2011-04-10T11:49:22Z</time></trkpt>
<trkpt lat="46.46546400" lon="6.10224100"><ele>1284.4587400944</ele><time>2011-04-10T11:49:23Z</time></trkpt>
<trkpt lat="46.46527900" lon="6.10196400"><ele>1286.3813477808</ele><time>2011-04-10T11:49:29Z</time></trkpt>
<trkpt lat="46.46520700" lon="6.10168900"><ele>1287.3425293992</ele><time>2011-04-10T11:49:33Z</time></trkpt>
<trkpt lat="46.46510300" lon="6.10143100"><ele>1287.8232422808</ele><time>2011-04-10T11:49:37Z</time></trkpt>
<trkpt lat="46.46473200" lon="6.10075500"><ele>1289.7458496624</ele><time>2011-04-10T11:49:49Z</time></trkpt>
<trkpt lat="46.46408300" lon="6.09976200"><ele>1288.3039551624</ele><time>2011-04-10T11:50:08Z</time></trkpt>
<trkpt lat="46.46381000" lon="6.09944100"><ele>1289.2651367808</ele><time>2011-04-10T11:50:16Z</time></trkpt>
<trkpt lat="46.46317100" lon="6.09892900"><ele>1286.8618165176</ele><time>2011-04-10T11:50:31Z</time></trkpt>
<trkpt lat="46.46293300" lon="6.09868800"><ele>1285.9006348992</ele><time>2011-04-10T11:50:36Z</time></trkpt>
<trkpt lat="46.46281200" lon="6.09825700"><ele>1285.9006348992</ele><time>2011-04-10T11:50:42Z</time></trkpt>
<trkpt lat="46.46271900" lon="6.09782900"><ele>1284.4587400944</ele><time>2011-04-10T11:50:48Z</time></trkpt>
<trkpt lat="46.46255100" lon="6.09739700"><ele>1284.4587400944</ele><time>2011-04-10T11:50:54Z</time></trkpt>
<trkpt lat="46.46233700" lon="6.09725200"><ele>1284.4587400944</ele><time>2011-04-10T11:50:59Z</time></trkpt>
<trkpt lat="46.46191600" lon="6.09752100"><ele>1284.4587400944</ele><time>2011-04-10T11:51:12Z</time></trkpt>
<trkpt lat="46.46039600" lon="6.09972900"><ele>1275.80664066</ele><time>2011-04-10T11:51:48Z</time></trkpt>
<trkpt lat="46.46032300" lon="6.09979200"><ele>1275.80664066</ele><time>2011-04-10T11:51:49Z</time></trkpt>
<trkpt lat="46.45969700" lon="6.10030100"><ele>1271.4807130152</ele><time>2011-04-10T11:51:57Z</time></trkpt>
<trkpt lat="46.45912600" lon="6.10077600"><ele>1266.1936034472</ele><time>2011-04-10T11:52:04Z</time></trkpt>
<trkpt lat="46.45889100" lon="6.10103400"><ele>1263.3098144472</ele><time>2011-04-10T11:52:07Z</time></trkpt>
<trkpt lat="46.45873300" lon="6.10123200"><ele>1262.348388684</ele><time>2011-04-10T11:52:09Z</time></trkpt>
<trkpt lat="46.45841300" lon="6.10175200"><ele>1259.944824276</ele><time>2011-04-10T11:52:14Z</time></trkpt>
<trkpt lat="46.45830500" lon="6.10193900"><ele>1258.502929776</ele><time>2011-04-10T11:52:16Z</time></trkpt>
<trkpt lat="46.45809400" lon="6.10204400"><ele>1257.061035276</ele><time>2011-04-10T11:52:19Z</time></trkpt>
<trkpt lat="46.45793300" lon="6.10194400"><ele>1256.0996095128</ele><time>2011-04-10T11:52:21Z</time></trkpt>
<trkpt lat="46.45758900" lon="6.10168700"><ele>1252.2543944448</ele><time>2011-04-10T11:52:25Z</time></trkpt>
<trkpt lat="46.45722800" lon="6.10141800"><ele>1249.3706054448</ele><time>2011-04-10T11:52:29Z</time></trkpt>
<trkpt lat="46.45707700" lon="6.10129700"><ele>1246.4868164448</ele><time>2011-04-10T11:52:31Z</time></trkpt>
<trkpt lat="46.45677100" lon="6.10080700"><ele>1241.199218892</ele><time>2011-04-10T11:52:36Z</time></trkpt>
<trkpt lat="46.45654400" lon="6.10047200"><ele>1240.2380369688</ele><time>2011-04-10T11:52:39Z</time></trkpt>
<trkpt lat="46.45626300" lon="6.10019900"><ele>1239.2766112056</ele><time>2011-04-10T11:52:42Z</time></trkpt>
<trkpt lat="46.45589600" lon="6.09994300"><ele>1234.470214824</ele><time>2011-04-10T11:52:46Z</time></trkpt>
<trkpt lat="46.45561300" lon="6.09984100"><ele>1231.1057129424</ele><time>2011-04-10T11:52:49Z</time></trkpt>
<trkpt lat="46.45552300" lon="6.09982800"><ele>1231.1057129424</ele><time>2011-04-10T11:52:50Z</time></trkpt>
<trkpt lat="46.45520800" lon="6.09978000"><ele>1227.7407227712</ele><time>2011-04-10T11:52:54Z</time></trkpt>
<trkpt lat="46.45495000" lon="6.09972800"><ele>1224.3762205848</ele><time>2011-04-10T11:52:58Z</time></trkpt>
<trkpt lat="46.45475800" lon="6.09968300"><ele>1221.49218744</ele><time>2011-04-10T11:53:03Z</time></trkpt>
<trkpt lat="46.45451500" lon="6.09966800"><ele>1221.49218744</ele><time>2011-04-10T11:53:13Z</time></trkpt>
<trkpt lat="46.45444300" lon="6.09991100"><ele>1220.5310058216</ele><time>2011-04-10T11:53:18Z</time></trkpt>
<trkpt lat="46.45444100" lon="6.10006700"><ele>1220.05029294</ele><time>2011-04-10T11:53:20Z</time></trkpt>
<trkpt lat="46.45441400" lon="6.10084500"><ele>1216.6857910584</ele><time>2011-04-10T11:53:29Z</time></trkpt>
<trkpt lat="46.45434900" lon="6.10229300"><ele>1216.2050781768</ele><time>2011-04-10T11:53:47Z</time></trkpt>
<trkpt lat="46.45430600" lon="6.10388100"><ele>1215.2438965584</ele><time>2011-04-10T11:54:07Z</time></trkpt>
<trkpt lat="46.45425300" lon="6.10515300"><ele>1215.72460944</ele><time>2011-04-10T11:54:25Z</time></trkpt>
<trkpt lat="46.45423800" lon="6.10578900"><ele>1216.2050781768</ele><time>2011-04-10T11:54:37Z</time></trkpt>
<trkpt lat="46.45414700" lon="6.10581400"><ele>1216.6857910584</ele><time>2011-04-10T11:54:41Z</time></trkpt>
<trkpt lat="46.45391700" lon="6.10564400"><ele>1216.6857910584</ele><time>2011-04-10T11:54:48Z</time></trkpt>
<trkpt lat="46.45375500" lon="6.10561600"><ele>1216.6857910584</ele><time>2011-04-10T11:54:52Z</time></trkpt>
<trkpt lat="46.45326900" lon="6.10562300"><ele>1215.2438965584</ele><time>2011-04-10T11:55:03Z</time></trkpt>
<trkpt lat="46.45286800" lon="6.10543500"><ele>1216.6857910584</ele><time>2011-04-10T11:55:16Z</time></trkpt>
<trkpt lat="46.45286400" lon="6.10543700"><ele>1216.6857910584</ele><time>2011-04-10T11:55:29Z</time></trkpt>
<trkpt lat="46.45286400" lon="6.10543700"><ele>1216.2050781768</ele><time>2011-04-10T11:55:30Z</time></trkpt>
<trkpt lat="46.45282000" lon="6.10557100"><ele>1216.2050781768</ele><time>2011-04-10T11:55:34Z</time></trkpt>
<trkpt lat="46.45278000" lon="6.10593000"><ele>1215.2438965584</ele><time>2011-04-10T11:55:41Z</time></trkpt>
<trkpt lat="46.45276600" lon="6.10611900"><ele>1214.7631836768</ele><time>2011-04-10T11:55:44Z</time></trkpt>
<trkpt lat="46.45270300" lon="6.10632700"><ele>1214.7631836768</ele><time>2011-04-10T11:55:48Z</time></trkpt>
<trkpt lat="46.45253900" lon="6.10706600"><ele>1212.8405762952</ele><time>2011-04-10T11:56:02Z</time></trkpt>
<trkpt lat="46.45250500" lon="6.10723200"><ele>1212.8405762952</ele><time>2011-04-10T11:56:05Z</time></trkpt>
<trkpt lat="46.45244400" lon="6.10745600"><ele>1211.879150532</ele><time>2011-04-10T11:56:09Z</time></trkpt>
<trkpt lat="46.45234300" lon="6.10789600"><ele>1210.917724464</ele><time>2011-04-10T11:56:17Z</time></trkpt>
<trkpt lat="46.45215600" lon="6.10859800"><ele>1210.917724464</ele><time>2011-04-10T11:56:32Z</time></trkpt>
<trkpt lat="46.45197000" lon="6.10919300"><ele>1208.033935464</ele><time>2011-04-10T11:56:43Z</time></trkpt>
<trkpt lat="46.45182700" lon="6.10973800"><ele>1208.9951170824</ele><time>2011-04-10T11:56:54Z</time></trkpt>
<trkpt lat="46.45164500" lon="6.11047700"><ele>1207.0725097008</ele><time>2011-04-10T11:57:10Z</time></trkpt>
<trkpt lat="46.45152100" lon="6.11090200"><ele>1208.9951170824</ele><time>2011-04-10T11:57:25Z</time></trkpt>
<trkpt lat="46.45141200" lon="6.11127000"><ele>1208.5144042008</ele><time>2011-04-10T11:57:38Z</time></trkpt>
<trkpt lat="46.45127900" lon="6.11167000"><ele>1209.475829964</ele><time>2011-04-10T11:57:55Z</time></trkpt>
<trkpt lat="46.45120200" lon="6.11172900"><ele>1209.475829964</ele><time>2011-04-10T11:58:00Z</time></trkpt>
<trkpt lat="46.45118100" lon="6.11178900"><ele>1209.9562987008</ele><time>2011-04-10T11:58:03Z</time></trkpt>
<trkpt lat="46.45117700" lon="6.11205500"><ele>1210.4370115824</ele><time>2011-04-10T11:58:12Z</time></trkpt>
<trkpt lat="46.45096100" lon="6.11251700"><ele>1209.9562987008</ele><time>2011-04-10T11:58:28Z</time></trkpt>
<trkpt lat="46.45064800" lon="6.11291900"><ele>1208.9951170824</ele><time>2011-04-10T11:58:42Z</time></trkpt>
<trkpt lat="46.45069300" lon="6.11366200"><ele>1208.5144042008</ele><time>2011-04-10T11:58:57Z</time></trkpt>
<trkpt lat="46.45048900" lon="6.11465500"><ele>1208.9951170824</ele><time>2011-04-10T11:59:13Z</time></trkpt>
<trkpt lat="46.45017300" lon="6.11569900"><ele>1208.033935464</ele><time>2011-04-10T11:59:32Z</time></trkpt>
<trkpt lat="46.44947000" lon="6.11690000"><ele>1209.475829964</ele><time>2011-04-10T11:59:55Z</time></trkpt>
<trkpt lat="46.44932700" lon="6.11709000"><ele>1208.9951170824</ele><time>2011-04-10T11:59:59Z</time></trkpt>
<trkpt lat="46.44908800" lon="6.11788400"><ele>1208.5144042008</ele><time>2011-04-10T12:00:12Z</time></trkpt>
<trkpt lat="46.44895600" lon="6.11866300"><ele>1208.033935464</ele><time>2011-04-10T12:00:23Z</time></trkpt>
<trkpt lat="46.44871900" lon="6.11924800"><ele>1209.475829964</ele><time>2011-04-10T12:00:33Z</time></trkpt>
<trkpt lat="46.44866500" lon="6.11937100"><ele>1208.5144042008</ele><time>2011-04-10T12:00:35Z</time></trkpt>
<trkpt lat="46.44825900" lon="6.12069200"><ele>1207.0725097008</ele><time>2011-04-10T12:00:56Z</time></trkpt>
<trkpt lat="46.44808100" lon="6.12174600"><ele>1206.5917968192</ele><time>2011-04-10T12:01:15Z</time></trkpt>
<trkpt lat="46.44804300" lon="6.12214000"><ele>1203.2272949376</ele><time>2011-04-10T12:01:25Z</time></trkpt>
<trkpt lat="46.44800200" lon="6.12254800"><ele>1200.3435059376</ele><time>2011-04-10T12:01:33Z</time></trkpt>
<trkpt lat="46.44794500" lon="6.12284400"><ele>1197.4594727928</ele><time>2011-04-10T12:01:38Z</time></trkpt>
<trkpt lat="46.44790600" lon="6.12326400"><ele>1193.61401358</ele><time>2011-04-10T12:01:44Z</time></trkpt>
<trkpt lat="46.44790400" lon="6.12334300"><ele>1193.1333006984</ele><time>2011-04-10T12:01:45Z</time></trkpt>
<trkpt lat="46.44784400" lon="6.12433600"><ele>1189.7687988168</ele><time>2011-04-10T12:02:01Z</time></trkpt>
<trkpt lat="46.44769200" lon="6.12497000"><ele>1189.2880859352</ele><time>2011-04-10T12:02:18Z</time></trkpt>
<trkpt lat="46.44767300" lon="6.12512600"><ele>1187.8461914352</ele><time>2011-04-10T12:02:22Z</time></trkpt>
<trkpt lat="46.44769400" lon="6.12584000"><ele>1187.8461914352</ele><time>2011-04-10T12:02:41Z</time></trkpt>
<trkpt lat="46.44763900" lon="6.12672200"><ele>1187.3654785536</ele><time>2011-04-10T12:03:04Z</time></trkpt>
<trkpt lat="46.44754400" lon="6.12714900"><ele>1188.3269043168</ele><time>2011-04-10T12:03:22Z</time></trkpt>
<trkpt lat="46.44756400" lon="6.12717300"><ele>1186.4042969352</ele><time>2011-04-10T12:03:48Z</time></trkpt>
<trkpt lat="46.44760100" lon="6.12734100"><ele>1187.8461914352</ele><time>2011-04-10T12:04:51Z</time></trkpt>
<trkpt lat="46.44747100" lon="6.12787600"><ele>1189.2880859352</ele><time>2011-04-10T12:05:12Z</time></trkpt>
<trkpt lat="46.44742700" lon="6.12824000"><ele>1186.884765672</ele><time>2011-04-10T12:05:23Z</time></trkpt>
<trkpt lat="46.44736700" lon="6.12856700"><ele>1186.884765672</ele><time>2011-04-10T12:05:30Z</time></trkpt>
<trkpt lat="46.44730500" lon="6.12900300"><ele>1187.8461914352</ele><time>2011-04-10T12:05:45Z</time></trkpt>
<trkpt lat="46.44730700" lon="6.12909200"><ele>1188.3269043168</ele><time>2011-04-10T12:05:55Z</time></trkpt>
<trkpt lat="46.44730000" lon="6.12937000"><ele>1191.6914061984</ele><time>2011-04-10T12:06:12Z</time></trkpt>
<trkpt lat="46.44725100" lon="6.12972700"><ele>1194.0947264616</ele><time>2011-04-10T12:06:37Z</time></trkpt>
<trkpt lat="46.44725500" lon="6.12975500"><ele>1194.0947264616</ele><time>2011-04-10T12:06:39Z</time></trkpt>
<trkpt lat="46.44725100" lon="6.13011600"><ele>1196.4982908696</ele><time>2011-04-10T12:07:03Z</time></trkpt>
<trkpt lat="46.44726000" lon="6.13032600"><ele>1197.9401856744</ele><time>2011-04-10T12:07:21Z</time></trkpt>
<trkpt lat="46.44725800" lon="6.13035800"><ele>1197.9401856744</ele><time>2011-04-10T12:07:22Z</time></trkpt>
<trkpt lat="46.44722900" lon="6.13048800"><ele>1197.9401856744</ele><time>2011-04-10T12:07:28Z</time></trkpt>
<trkpt lat="46.44721300" lon="6.13059000"><ele>1196.4982908696</ele><time>2011-04-10T12:07:32Z</time></trkpt>
<trkpt lat="46.44715600" lon="6.13088100"><ele>1195.5366209616</ele><time>2011-04-10T12:07:42Z</time></trkpt>
<trkpt lat="46.44715000" lon="6.13126300"><ele>1191.6914061984</ele><time>2011-04-10T12:07:48Z</time></trkpt>
<trkpt lat="46.44714800" lon="6.13133100"><ele>1190.7299804352</ele><time>2011-04-10T12:07:49Z</time></trkpt>
<trkpt lat="46.44715300" lon="6.13165000"><ele>1187.8461914352</ele><time>2011-04-10T12:07:53Z</time></trkpt>
<trkpt lat="46.44715100" lon="6.13196400"><ele>1185.442871172</ele><time>2011-04-10T12:07:57Z</time></trkpt>
<trkpt lat="46.44715300" lon="6.13229400"><ele>1183.5202637904</ele><time>2011-04-10T12:08:02Z</time></trkpt>
<trkpt lat="46.44715100" lon="6.13235800"><ele>1183.0395509088</ele><time>2011-04-10T12:08:03Z</time></trkpt>
<trkpt lat="46.44731700" lon="6.13249400"><ele>1181.597656104</ele><time>2011-04-10T12:08:08Z</time></trkpt>
<trkpt lat="46.44753100" lon="6.13238100"><ele>1179.6748045776</ele><time>2011-04-10T12:08:13Z</time></trkpt>
<trkpt lat="46.44757600" lon="6.13254900"><ele>1177.752197196</ele><time>2011-04-10T12:08:17Z</time></trkpt>
<trkpt lat="46.44746500" lon="6.13300700"><ele>1173.426513696</ele><time>2011-04-10T12:08:23Z</time></trkpt>
<trkpt lat="46.44734600" lon="6.13328100"><ele>1169.5812989328</ele><time>2011-04-10T12:08:27Z</time></trkpt>
<trkpt lat="46.44725500" lon="6.13347900"><ele>1165.7360838648</ele><time>2011-04-10T12:08:30Z</time></trkpt>
<trkpt lat="46.44717400" lon="6.13368500"><ele>1162.8518065752</ele><time>2011-04-10T12:08:33Z</time></trkpt>
<trkpt lat="46.44710900" lon="6.13393900"><ele>1159.4873046936</ele><time>2011-04-10T12:08:36Z</time></trkpt>
<trkpt lat="46.44707600" lon="6.13430300"><ele>1155.6420899304</ele><time>2011-04-10T12:08:40Z</time></trkpt>
<trkpt lat="46.44708300" lon="6.13453200"><ele>1151.3161619808</ele><time>2011-04-10T12:08:43Z</time></trkpt>
<trkpt lat="46.44709100" lon="6.13464600"><ele>1150.8354490992</ele><time>2011-04-10T12:08:45Z</time></trkpt>
<trkpt lat="46.44709600" lon="6.13469900"><ele>1150.3549803624</ele><time>2011-04-10T12:08:46Z</time></trkpt>
<trkpt lat="46.44737100" lon="6.13484800"><ele>1149.3935545992</ele><time>2011-04-10T12:08:53Z</time></trkpt>
<trkpt lat="46.44746500" lon="6.13484300"><ele>1148.432128836</ele><time>2011-04-10T12:08:55Z</time></trkpt>
<trkpt lat="46.44778400" lon="6.13500200"><ele>1146.0288085728</ele><time>2011-04-10T12:09:02Z</time></trkpt>
<trkpt lat="46.44785200" lon="6.13522100"><ele>1144.586669928</ele><time>2011-04-10T12:09:05Z</time></trkpt>
<trkpt lat="46.44790200" lon="6.13535700"><ele>1144.586669928</ele><time>2011-04-10T12:09:07Z</time></trkpt>
<trkpt lat="46.44797600" lon="6.13547600"><ele>1143.144775428</ele><time>2011-04-10T12:09:09Z</time></trkpt>
<trkpt lat="46.44805900" lon="6.13576500"><ele>1140.7414551648</ele><time>2011-04-10T12:09:13Z</time></trkpt>
<trkpt lat="46.44808100" lon="6.13591100"><ele>1140.260986428</ele><time>2011-04-10T12:09:15Z</time></trkpt>
<trkpt lat="46.44805400" lon="6.13629800"><ele>1136.8962400968</ele><time>2011-04-10T12:09:20Z</time></trkpt>
<trkpt lat="46.44797900" lon="6.13673100"><ele>1133.5317382152</ele><time>2011-04-10T12:09:25Z</time></trkpt>
<trkpt lat="46.44794100" lon="6.13693200"><ele>1133.0510253336</ele><time>2011-04-10T12:09:27Z</time></trkpt>
<trkpt lat="46.44782800" lon="6.13751800"><ele>1126.8024903072</ele><time>2011-04-10T12:09:33Z</time></trkpt>
<trkpt lat="46.44766900" lon="6.13798800"><ele>1123.9184571624</ele><time>2011-04-10T12:09:39Z</time></trkpt>
<trkpt lat="46.44758800" lon="6.13815800"><ele>1122.4765623576</ele><time>2011-04-10T12:09:41Z</time></trkpt>
<trkpt lat="46.44717500" lon="6.13910100"><ele>1121.995849476</ele><time>2011-04-10T12:09:55Z</time></trkpt>
<trkpt lat="46.44677500" lon="6.14005400"><ele>1121.0346678576</ele><time>2011-04-10T12:10:12Z</time></trkpt>
<trkpt lat="46.44669300" lon="6.14034800"><ele>1120.553954976</ele><time>2011-04-10T12:10:16Z</time></trkpt>
<trkpt lat="46.44659000" lon="6.14116800"><ele>1117.6699218312</ele><time>2011-04-10T12:10:24Z</time></trkpt>
<trkpt lat="46.44654000" lon="6.14155100"><ele>1115.7473144496</ele><time>2011-04-10T12:10:27Z</time></trkpt>
<trkpt lat="46.44650700" lon="6.14193700"><ele>1113.8244629232</ele><time>2011-04-10T12:10:30Z</time></trkpt>
<trkpt lat="46.44630900" lon="6.14380700"><ele>1110.4599610416</ele><time>2011-04-10T12:10:46Z</time></trkpt>
<trkpt lat="46.44614400" lon="6.14541200"><ele>1107.5761717368</ele><time>2011-04-10T12:11:03Z</time></trkpt>
<trkpt lat="46.44612000" lon="6.14568400"><ele>1107.5761717368</ele><time>2011-04-10T12:11:07Z</time></trkpt>
<trkpt lat="46.44609200" lon="6.14590000"><ele>1106.6147459736</ele><time>2011-04-10T12:11:10Z</time></trkpt>
<trkpt lat="46.44592400" lon="6.14700900"><ele>1106.6147459736</ele><time>2011-04-10T12:11:26Z</time></trkpt>
<trkpt lat="46.44576300" lon="6.14762600"><ele>1103.250244092</ele><time>2011-04-10T12:11:39Z</time></trkpt>
<trkpt lat="46.44569700" lon="6.14775800"><ele>1100.8469238288</ele><time>2011-04-10T12:11:42Z</time></trkpt>
<trkpt lat="46.44554100" lon="6.14822600"><ele>1097.962890684</ele><time>2011-04-10T12:11:48Z</time></trkpt>
<trkpt lat="46.44546000" lon="6.14894500"><ele>1094.5981446576</ele><time>2011-04-10T12:11:54Z</time></trkpt>
<trkpt lat="46.44536600" lon="6.14958800"><ele>1091.7143553528</ele><time>2011-04-10T12:11:59Z</time></trkpt>
<trkpt lat="46.44524900" lon="6.15050300"><ele>1088.3498534712</ele><time>2011-04-10T12:12:06Z</time></trkpt>
<trkpt lat="46.44521600" lon="6.15077000"><ele>1084.9853515896</ele><time>2011-04-10T12:12:08Z</time></trkpt>
<trkpt lat="46.44519000" lon="6.15103500"><ele>1083.0622559184</ele><time>2011-04-10T12:12:10Z</time></trkpt>
<trkpt lat="46.44529100" lon="6.15185500"><ele>1079.2170411552</ele><time>2011-04-10T12:12:16Z</time></trkpt>
<trkpt lat="46.44536800" lon="6.15235100"><ele>1076.3332518504</ele><time>2011-04-10T12:12:20Z</time></trkpt>
<trkpt lat="46.44545400" lon="6.15265000"><ele>1073.9299315872</ele><time>2011-04-10T12:12:23Z</time></trkpt>
<trkpt lat="46.44571000" lon="6.15316000"><ele>1070.084716824</ele><time>2011-04-10T12:12:29Z</time></trkpt>
<trkpt lat="46.44590300" lon="6.15359600"><ele>1066.7199707976</ele><time>2011-04-10T12:12:34Z</time></trkpt>
<trkpt lat="46.44615000" lon="6.15427100"><ele>1062.8747557296</ele><time>2011-04-10T12:12:42Z</time></trkpt>
<trkpt lat="46.44618000" lon="6.15436900"><ele>1062.394042848</ele><time>2011-04-10T12:12:43Z</time></trkpt>
<trkpt lat="46.44630400" lon="6.15476700"><ele>1060.952148348</ele><time>2011-04-10T12:12:47Z</time></trkpt>
<trkpt lat="46.44638900" lon="6.15507100"><ele>1059.510253848</ele><time>2011-04-10T12:12:50Z</time></trkpt>
<trkpt lat="46.44650300" lon="6.15599900"><ele>1058.068359348</ele><time>2011-04-10T12:12:59Z</time></trkpt>
<trkpt lat="46.44651000" lon="6.15650000"><ele>1056.6262207032</ele><time>2011-04-10T12:13:04Z</time></trkpt>
<trkpt lat="46.44636400" lon="6.15727300"><ele>1056.1455078216</ele><time>2011-04-10T12:13:13Z</time></trkpt>
<trkpt lat="46.44625100" lon="6.15753800"><ele>1056.1455078216</ele><time>2011-04-10T12:13:17Z</time></trkpt>
<trkpt lat="46.44599800" lon="6.15810600"><ele>1056.6262207032</ele><time>2011-04-10T12:13:31Z</time></trkpt>
<trkpt lat="46.44597600" lon="6.15813300"><ele>1056.1455078216</ele><time>2011-04-10T12:13:32Z</time></trkpt>
<trkpt lat="46.44542200" lon="6.15815900"><ele>1056.1455078216</ele><time>2011-04-10T12:13:46Z</time></trkpt>
<trkpt lat="46.44495200" lon="6.15854400"><ele>1055.6650390848</ele><time>2011-04-10T12:14:00Z</time></trkpt>
</trkseg></trk></gpx>